<?xml version="1.0" encoding="UTF-8" standalone="no" ?>
<gpx xmlns="http://www.topografix.com/GPX/1/1" xmlns:xsi="http://www.w3.org/2001/XMLSchema-instance" xsi:schemaLocation="http://www.topografix.com/GPX/1/1 http://www.topografix.com/GPX/1/1/gpx.xsd" version="1.1" creator="VisuGPX - https://www.visugpx.com">
  <metadata>
    <name>Bord de l'Aix</name>
    <desc><![CDATA[Une bonne ballade au bord de l'Aix, par contre la moitié en route goudronnée depuis mon point de départ]]></desc>
  </metadata>
  <trk>
    <name><![CDATA[Bord de l'Aix_1]]></name>
    <trkseg>
      <trkpt lat="45.85589" lon="4.01629">
        <ele>425.4</ele>
        <time>2017-04-13T16:43:40Z</time>
      </trkpt>
      <trkpt lat="45.85589" lon="4.01629">
        <ele>412.4</ele>
        <time>2017-04-13T16:43:41Z</time>
      </trkpt>
      <trkpt lat="45.85608" lon="4.01618">
        <ele>421.5</ele>
        <time>2017-04-13T16:43:53Z</time>
      </trkpt>
      <trkpt lat="45.85629" lon="4.01609">
        <ele>421.4</ele>
        <time>2017-04-13T16:43:56Z</time>
      </trkpt>
      <trkpt lat="45.85664" lon="4.01594">
        <ele>422.1</ele>
        <time>2017-04-13T16:44:01Z</time>
      </trkpt>
      <trkpt lat="45.857" lon="4.01579">
        <ele>422.6</ele>
        <time>2017-04-13T16:44:06Z</time>
      </trkpt>
      <trkpt lat="45.85721" lon="4.0157">
        <ele>423.5</ele>
        <time>2017-04-13T16:44:09Z</time>
      </trkpt>
      <trkpt lat="45.85756" lon="4.01558">
        <ele>425.3</ele>
        <time>2017-04-13T16:44:14Z</time>
      </trkpt>
      <trkpt lat="45.85796" lon="4.01545">
        <ele>427.4</ele>
        <time>2017-04-13T16:44:20Z</time>
      </trkpt>
      <trkpt lat="45.8583" lon="4.01531">
        <ele>427.6</ele>
        <time>2017-04-13T16:44:25Z</time>
      </trkpt>
      <trkpt lat="45.85861" lon="4.01519">
        <ele>428.3</ele>
        <time>2017-04-13T16:44:30Z</time>
      </trkpt>
      <trkpt lat="45.85882" lon="4.01505">
        <ele>430</ele>
        <time>2017-04-13T16:44:36Z</time>
      </trkpt>
      <trkpt lat="45.85855" lon="4.0145">
        <ele>430.4</ele>
        <time>2017-04-13T16:44:44Z</time>
      </trkpt>
      <trkpt lat="45.85828" lon="4.01396">
        <ele>430.8</ele>
        <time>2017-04-13T16:44:50Z</time>
      </trkpt>
      <trkpt lat="45.85807" lon="4.01353">
        <ele>431.8</ele>
        <time>2017-04-13T16:44:55Z</time>
      </trkpt>
      <trkpt lat="45.85789" lon="4.01311">
        <ele>433.5</ele>
        <time>2017-04-13T16:45:00Z</time>
      </trkpt>
      <trkpt lat="45.8578" lon="4.01282">
        <ele>434.2</ele>
        <time>2017-04-13T16:45:03Z</time>
      </trkpt>
      <trkpt lat="45.85765" lon="4.01236">
        <ele>435.6</ele>
        <time>2017-04-13T16:45:08Z</time>
      </trkpt>
      <trkpt lat="45.85756" lon="4.0121">
        <ele>437</ele>
        <time>2017-04-13T16:45:11Z</time>
      </trkpt>
      <trkpt lat="45.85736" lon="4.01158">
        <ele>439.7</ele>
        <time>2017-04-13T16:45:17Z</time>
      </trkpt>
      <trkpt lat="45.85716" lon="4.01105">
        <ele>442.7</ele>
        <time>2017-04-13T16:45:23Z</time>
      </trkpt>
      <trkpt lat="45.857" lon="4.01044">
        <ele>446.3</ele>
        <time>2017-04-13T16:45:31Z</time>
      </trkpt>
      <trkpt lat="45.85694" lon="4.00993">
        <ele>449.8</ele>
        <time>2017-04-13T16:45:36Z</time>
      </trkpt>
      <trkpt lat="45.85687" lon="4.00966">
        <ele>450.6</ele>
        <time>2017-04-13T16:45:39Z</time>
      </trkpt>
      <trkpt lat="45.85678" lon="4.00939">
        <ele>451.9</ele>
        <time>2017-04-13T16:45:42Z</time>
      </trkpt>
      <trkpt lat="45.85664" lon="4.00906">
        <ele>451.7</ele>
        <time>2017-04-13T16:45:46Z</time>
      </trkpt>
      <trkpt lat="45.85647" lon="4.00863">
        <ele>451</ele>
        <time>2017-04-13T16:45:51Z</time>
      </trkpt>
      <trkpt lat="45.85639" lon="4.00806">
        <ele>451.8</ele>
        <time>2017-04-13T16:45:57Z</time>
      </trkpt>
      <trkpt lat="45.85633" lon="4.0075">
        <ele>453.1</ele>
        <time>2017-04-13T16:46:03Z</time>
      </trkpt>
      <trkpt lat="45.8563" lon="4.0072">
        <ele>453.2</ele>
        <time>2017-04-13T16:46:06Z</time>
      </trkpt>
      <trkpt lat="45.8563" lon="4.0069">
        <ele>453.5</ele>
        <time>2017-04-13T16:46:09Z</time>
      </trkpt>
      <trkpt lat="45.85634" lon="4.00639">
        <ele>452.7</ele>
        <time>2017-04-13T16:46:14Z</time>
      </trkpt>
      <trkpt lat="45.85636" lon="4.00609">
        <ele>453</ele>
        <time>2017-04-13T16:46:17Z</time>
      </trkpt>
      <trkpt lat="45.85638" lon="4.0058">
        <ele>454.7</ele>
        <time>2017-04-13T16:46:20Z</time>
      </trkpt>
      <trkpt lat="45.85642" lon="4.00522">
        <ele>459.9</ele>
        <time>2017-04-13T16:46:26Z</time>
      </trkpt>
      <trkpt lat="45.85636" lon="4.00467">
        <ele>462.8</ele>
        <time>2017-04-13T16:46:32Z</time>
      </trkpt>
      <trkpt lat="45.8562" lon="4.00413">
        <ele>465.6</ele>
        <time>2017-04-13T16:46:38Z</time>
      </trkpt>
      <trkpt lat="45.85609" lon="4.00389">
        <ele>466.8</ele>
        <time>2017-04-13T16:46:41Z</time>
      </trkpt>
      <trkpt lat="45.85599" lon="4.00362">
        <ele>466.8</ele>
        <time>2017-04-13T16:46:44Z</time>
      </trkpt>
      <trkpt lat="45.85588" lon="4.00315">
        <ele>467.6</ele>
        <time>2017-04-13T16:46:49Z</time>
      </trkpt>
      <trkpt lat="45.8558" lon="4.00267">
        <ele>469.1</ele>
        <time>2017-04-13T16:46:54Z</time>
      </trkpt>
      <trkpt lat="45.85575" lon="4.00238">
        <ele>470.6</ele>
        <time>2017-04-13T16:46:57Z</time>
      </trkpt>
      <trkpt lat="45.85562" lon="4.00183">
        <ele>472.3</ele>
        <time>2017-04-13T16:47:03Z</time>
      </trkpt>
      <trkpt lat="45.85545" lon="4.00131">
        <ele>474.2</ele>
        <time>2017-04-13T16:47:09Z</time>
      </trkpt>
      <trkpt lat="45.85531" lon="4.00085">
        <ele>474.3</ele>
        <time>2017-04-13T16:47:14Z</time>
      </trkpt>
      <trkpt lat="45.85512" lon="4.0003">
        <ele>474.4</ele>
        <time>2017-04-13T16:47:20Z</time>
      </trkpt>
      <trkpt lat="45.85497" lon="3.99974">
        <ele>474.8</ele>
        <time>2017-04-13T16:47:26Z</time>
      </trkpt>
      <trkpt lat="45.85483" lon="3.99913">
        <ele>477</ele>
        <time>2017-04-13T16:47:33Z</time>
      </trkpt>
      <trkpt lat="45.85478" lon="3.99871">
        <ele>479.9</ele>
        <time>2017-04-13T16:47:38Z</time>
      </trkpt>
      <trkpt lat="45.85479" lon="3.99824">
        <ele>483.2</ele>
        <time>2017-04-13T16:47:45Z</time>
      </trkpt>
      <trkpt lat="45.85449" lon="3.99808">
        <ele>485.4</ele>
        <time>2017-04-13T16:47:50Z</time>
      </trkpt>
      <trkpt lat="45.85413" lon="3.99816">
        <ele>487.6</ele>
        <time>2017-04-13T16:47:55Z</time>
      </trkpt>
      <trkpt lat="45.85393" lon="3.99817">
        <ele>488.1</ele>
        <time>2017-04-13T16:47:58Z</time>
      </trkpt>
      <trkpt lat="45.85361" lon="3.99811">
        <ele>486.6</ele>
        <time>2017-04-13T16:48:03Z</time>
      </trkpt>
      <trkpt lat="45.85338" lon="3.99799">
        <ele>486.1</ele>
        <time>2017-04-13T16:48:07Z</time>
      </trkpt>
      <trkpt lat="45.85299" lon="3.99784">
        <ele>486.9</ele>
        <time>2017-04-13T16:48:13Z</time>
      </trkpt>
      <trkpt lat="45.85262" lon="3.99786">
        <ele>487</ele>
        <time>2017-04-13T16:48:18Z</time>
      </trkpt>
      <trkpt lat="45.85241" lon="3.99791">
        <ele>487.4</ele>
        <time>2017-04-13T16:48:21Z</time>
      </trkpt>
      <trkpt lat="45.85214" lon="3.99789">
        <ele>488.4</ele>
        <time>2017-04-13T16:48:27Z</time>
      </trkpt>
      <trkpt lat="45.85184" lon="3.99783">
        <ele>488.4</ele>
        <time>2017-04-13T16:48:33Z</time>
      </trkpt>
      <trkpt lat="45.85146" lon="3.99759">
        <ele>487.2</ele>
        <time>2017-04-13T16:48:39Z</time>
      </trkpt>
      <trkpt lat="45.85113" lon="3.99739">
        <ele>484.3</ele>
        <time>2017-04-13T16:48:44Z</time>
      </trkpt>
      <trkpt lat="45.85086" lon="3.99728">
        <ele>484.4</ele>
        <time>2017-04-13T16:48:48Z</time>
      </trkpt>
      <trkpt lat="45.8504" lon="3.99724">
        <ele>483.3</ele>
        <time>2017-04-13T16:48:54Z</time>
      </trkpt>
      <trkpt lat="45.84994" lon="3.99725">
        <ele>482.7</ele>
        <time>2017-04-13T16:49:00Z</time>
      </trkpt>
      <trkpt lat="45.84945" lon="3.99729">
        <ele>483.3</ele>
        <time>2017-04-13T16:49:06Z</time>
      </trkpt>
      <trkpt lat="45.84908" lon="3.99713">
        <ele>483.4</ele>
        <time>2017-04-13T16:49:11Z</time>
      </trkpt>
      <trkpt lat="45.8487" lon="3.99684">
        <ele>484</ele>
        <time>2017-04-13T16:49:17Z</time>
      </trkpt>
      <trkpt lat="45.84833" lon="3.99648">
        <ele>485.3</ele>
        <time>2017-04-13T16:49:23Z</time>
      </trkpt>
      <trkpt lat="45.84789" lon="3.99633">
        <ele>486.3</ele>
        <time>2017-04-13T16:49:29Z</time>
      </trkpt>
      <trkpt lat="45.84754" lon="3.9961">
        <ele>482.8</ele>
        <time>2017-04-13T16:49:36Z</time>
      </trkpt>
      <trkpt lat="45.84773" lon="3.99553">
        <ele>477.1</ele>
        <time>2017-04-13T16:49:45Z</time>
      </trkpt>
      <trkpt lat="45.84788" lon="3.99505">
        <ele>476</ele>
        <time>2017-04-13T16:49:50Z</time>
      </trkpt>
      <trkpt lat="45.84798" lon="3.99453">
        <ele>476</ele>
        <time>2017-04-13T16:49:55Z</time>
      </trkpt>
      <trkpt lat="45.84801" lon="3.99419">
        <ele>476.7</ele>
        <time>2017-04-13T16:49:58Z</time>
      </trkpt>
      <trkpt lat="45.84803" lon="3.99367">
        <ele>478.5</ele>
        <time>2017-04-13T16:50:03Z</time>
      </trkpt>
      <trkpt lat="45.84808" lon="3.99317">
        <ele>479.2</ele>
        <time>2017-04-13T16:50:08Z</time>
      </trkpt>
      <trkpt lat="45.84811" lon="3.99267">
        <ele>479.5</ele>
        <time>2017-04-13T16:50:13Z</time>
      </trkpt>
      <trkpt lat="45.84817" lon="3.9921">
        <ele>480.9</ele>
        <time>2017-04-13T16:50:19Z</time>
      </trkpt>
      <trkpt lat="45.84826" lon="3.99163">
        <ele>482.7</ele>
        <time>2017-04-13T16:50:24Z</time>
      </trkpt>
      <trkpt lat="45.84836" lon="3.99127">
        <ele>483</ele>
        <time>2017-04-13T16:50:28Z</time>
      </trkpt>
      <trkpt lat="45.84851" lon="3.99064">
        <ele>484.5</ele>
        <time>2017-04-13T16:50:35Z</time>
      </trkpt>
      <trkpt lat="45.84865" lon="3.9901">
        <ele>487.1</ele>
        <time>2017-04-13T16:50:41Z</time>
      </trkpt>
      <trkpt lat="45.84878" lon="3.98955">
        <ele>488.6</ele>
        <time>2017-04-13T16:50:47Z</time>
      </trkpt>
      <trkpt lat="45.84892" lon="3.98901">
        <ele>488.2</ele>
        <time>2017-04-13T16:50:53Z</time>
      </trkpt>
      <trkpt lat="45.84906" lon="3.98845">
        <ele>487.4</ele>
        <time>2017-04-13T16:50:59Z</time>
      </trkpt>
      <trkpt lat="45.8492" lon="3.9879">
        <ele>486.3</ele>
        <time>2017-04-13T16:51:05Z</time>
      </trkpt>
      <trkpt lat="45.84935" lon="3.98736">
        <ele>485.3</ele>
        <time>2017-04-13T16:51:11Z</time>
      </trkpt>
      <trkpt lat="45.8495" lon="3.98693">
        <ele>487.6</ele>
        <time>2017-04-13T16:51:16Z</time>
      </trkpt>
      <trkpt lat="45.84958" lon="3.98667">
        <ele>488.6</ele>
        <time>2017-04-13T16:51:19Z</time>
      </trkpt>
      <trkpt lat="45.84973" lon="3.98624">
        <ele>490.8</ele>
        <time>2017-04-13T16:51:24Z</time>
      </trkpt>
      <trkpt lat="45.8499" lon="3.98573">
        <ele>493</ele>
        <time>2017-04-13T16:51:30Z</time>
      </trkpt>
      <trkpt lat="45.84999" lon="3.98547">
        <ele>494.3</ele>
        <time>2017-04-13T16:51:33Z</time>
      </trkpt>
      <trkpt lat="45.85007" lon="3.98523">
        <ele>494.5</ele>
        <time>2017-04-13T16:51:36Z</time>
      </trkpt>
      <trkpt lat="45.85016" lon="3.98498">
        <ele>495.9</ele>
        <time>2017-04-13T16:51:39Z</time>
      </trkpt>
      <trkpt lat="45.85025" lon="3.98475">
        <ele>497.5</ele>
        <time>2017-04-13T16:51:42Z</time>
      </trkpt>
      <trkpt lat="45.85036" lon="3.98451">
        <ele>498.1</ele>
        <time>2017-04-13T16:51:45Z</time>
      </trkpt>
      <trkpt lat="45.85046" lon="3.98427">
        <ele>498.7</ele>
        <time>2017-04-13T16:51:48Z</time>
      </trkpt>
      <trkpt lat="45.85056" lon="3.98404">
        <ele>500.3</ele>
        <time>2017-04-13T16:51:51Z</time>
      </trkpt>
      <trkpt lat="45.85072" lon="3.98362">
        <ele>501.3</ele>
        <time>2017-04-13T16:51:56Z</time>
      </trkpt>
      <trkpt lat="45.85082" lon="3.98336">
        <ele>501.7</ele>
        <time>2017-04-13T16:51:59Z</time>
      </trkpt>
      <trkpt lat="45.85099" lon="3.98286">
        <ele>503</ele>
        <time>2017-04-13T16:52:05Z</time>
      </trkpt>
      <trkpt lat="45.85112" lon="3.98243">
        <ele>503.5</ele>
        <time>2017-04-13T16:52:10Z</time>
      </trkpt>
      <trkpt lat="45.85125" lon="3.982">
        <ele>504.7</ele>
        <time>2017-04-13T16:52:15Z</time>
      </trkpt>
      <trkpt lat="45.85133" lon="3.98174">
        <ele>505.5</ele>
        <time>2017-04-13T16:52:18Z</time>
      </trkpt>
      <trkpt lat="45.85147" lon="3.98123">
        <ele>505.8</ele>
        <time>2017-04-13T16:52:25Z</time>
      </trkpt>
      <trkpt lat="45.85159" lon="3.98071">
        <ele>507.1</ele>
        <time>2017-04-13T16:52:30Z</time>
      </trkpt>
      <trkpt lat="45.85165" lon="3.98044">
        <ele>507.9</ele>
        <time>2017-04-13T16:52:34Z</time>
      </trkpt>
      <trkpt lat="45.85178" lon="3.97991">
        <ele>510.5</ele>
        <time>2017-04-13T16:52:39Z</time>
      </trkpt>
      <trkpt lat="45.85188" lon="3.97946">
        <ele>511.7</ele>
        <time>2017-04-13T16:52:44Z</time>
      </trkpt>
      <trkpt lat="45.852" lon="3.97892">
        <ele>511.1</ele>
        <time>2017-04-13T16:52:50Z</time>
      </trkpt>
      <trkpt lat="45.85215" lon="3.97824">
        <ele>511.7</ele>
        <time>2017-04-13T16:52:57Z</time>
      </trkpt>
      <trkpt lat="45.85225" lon="3.97774">
        <ele>511.6</ele>
        <time>2017-04-13T16:53:02Z</time>
      </trkpt>
      <trkpt lat="45.85233" lon="3.97723">
        <ele>511.6</ele>
        <time>2017-04-13T16:53:07Z</time>
      </trkpt>
      <trkpt lat="45.85238" lon="3.9767">
        <ele>511.8</ele>
        <time>2017-04-13T16:53:12Z</time>
      </trkpt>
      <trkpt lat="45.8524" lon="3.97619">
        <ele>512.6</ele>
        <time>2017-04-13T16:53:17Z</time>
      </trkpt>
      <trkpt lat="45.85242" lon="3.97555">
        <ele>512.9</ele>
        <time>2017-04-13T16:53:23Z</time>
      </trkpt>
      <trkpt lat="45.85245" lon="3.97503">
        <ele>513.2</ele>
        <time>2017-04-13T16:53:28Z</time>
      </trkpt>
      <trkpt lat="45.85252" lon="3.9744">
        <ele>513.5</ele>
        <time>2017-04-13T16:53:34Z</time>
      </trkpt>
      <trkpt lat="45.85261" lon="3.9739">
        <ele>512.7</ele>
        <time>2017-04-13T16:53:39Z</time>
      </trkpt>
      <trkpt lat="45.85271" lon="3.97342">
        <ele>512.5</ele>
        <time>2017-04-13T16:53:44Z</time>
      </trkpt>
      <trkpt lat="45.85286" lon="3.97284">
        <ele>511.7</ele>
        <time>2017-04-13T16:53:50Z</time>
      </trkpt>
      <trkpt lat="45.85304" lon="3.97228">
        <ele>511</ele>
        <time>2017-04-13T16:53:56Z</time>
      </trkpt>
      <trkpt lat="45.8532" lon="3.97182">
        <ele>510.9</ele>
        <time>2017-04-13T16:54:01Z</time>
      </trkpt>
      <trkpt lat="45.85336" lon="3.97137">
        <ele>510.9</ele>
        <time>2017-04-13T16:54:06Z</time>
      </trkpt>
      <trkpt lat="45.85354" lon="3.97092">
        <ele>510.2</ele>
        <time>2017-04-13T16:54:11Z</time>
      </trkpt>
      <trkpt lat="45.85368" lon="3.97055">
        <ele>509.6</ele>
        <time>2017-04-13T16:54:15Z</time>
      </trkpt>
      <trkpt lat="45.85387" lon="3.9701">
        <ele>509.8</ele>
        <time>2017-04-13T16:54:20Z</time>
      </trkpt>
      <trkpt lat="45.854" lon="3.96986">
        <ele>510.3</ele>
        <time>2017-04-13T16:54:23Z</time>
      </trkpt>
      <trkpt lat="45.85428" lon="3.96941">
        <ele>511.9</ele>
        <time>2017-04-13T16:54:29Z</time>
      </trkpt>
      <trkpt lat="45.85457" lon="3.969">
        <ele>515.6</ele>
        <time>2017-04-13T16:54:35Z</time>
      </trkpt>
      <trkpt lat="45.85485" lon="3.96858">
        <ele>517.2</ele>
        <time>2017-04-13T16:54:41Z</time>
      </trkpt>
      <trkpt lat="45.85509" lon="3.96814">
        <ele>517.8</ele>
        <time>2017-04-13T16:54:47Z</time>
      </trkpt>
      <trkpt lat="45.8553" lon="3.96768">
        <ele>519.4</ele>
        <time>2017-04-13T16:54:53Z</time>
      </trkpt>
      <trkpt lat="45.85551" lon="3.96722">
        <ele>521.4</ele>
        <time>2017-04-13T16:54:59Z</time>
      </trkpt>
      <trkpt lat="45.85572" lon="3.96675">
        <ele>522.6</ele>
        <time>2017-04-13T16:55:05Z</time>
      </trkpt>
      <trkpt lat="45.85593" lon="3.96624">
        <ele>522.9</ele>
        <time>2017-04-13T16:55:11Z</time>
      </trkpt>
      <trkpt lat="45.8561" lon="3.96581">
        <ele>522.5</ele>
        <time>2017-04-13T16:55:16Z</time>
      </trkpt>
      <trkpt lat="45.85632" lon="3.9653">
        <ele>523.2</ele>
        <time>2017-04-13T16:55:22Z</time>
      </trkpt>
      <trkpt lat="45.85654" lon="3.96478">
        <ele>523.8</ele>
        <time>2017-04-13T16:55:28Z</time>
      </trkpt>
      <trkpt lat="45.85671" lon="3.96435">
        <ele>524.1</ele>
        <time>2017-04-13T16:55:33Z</time>
      </trkpt>
      <trkpt lat="45.85689" lon="3.96381">
        <ele>525</ele>
        <time>2017-04-13T16:55:39Z</time>
      </trkpt>
      <trkpt lat="45.85698" lon="3.96354">
        <ele>525.1</ele>
        <time>2017-04-13T16:55:42Z</time>
      </trkpt>
      <trkpt lat="45.85707" lon="3.96328">
        <ele>525.3</ele>
        <time>2017-04-13T16:55:45Z</time>
      </trkpt>
      <trkpt lat="45.85716" lon="3.96302">
        <ele>526</ele>
        <time>2017-04-13T16:55:48Z</time>
      </trkpt>
      <trkpt lat="45.85727" lon="3.96277">
        <ele>526.6</ele>
        <time>2017-04-13T16:55:51Z</time>
      </trkpt>
      <trkpt lat="45.85739" lon="3.96252">
        <ele>527.1</ele>
        <time>2017-04-13T16:55:54Z</time>
      </trkpt>
      <trkpt lat="45.8575" lon="3.96228">
        <ele>527.9</ele>
        <time>2017-04-13T16:55:57Z</time>
      </trkpt>
      <trkpt lat="45.85761" lon="3.96203">
        <ele>528.8</ele>
        <time>2017-04-13T16:56:00Z</time>
      </trkpt>
      <trkpt lat="45.85773" lon="3.96179">
        <ele>529.6</ele>
        <time>2017-04-13T16:56:03Z</time>
      </trkpt>
      <trkpt lat="45.85794" lon="3.96133">
        <ele>531.1</ele>
        <time>2017-04-13T16:56:09Z</time>
      </trkpt>
      <trkpt lat="45.85803" lon="3.96108">
        <ele>532</ele>
        <time>2017-04-13T16:56:12Z</time>
      </trkpt>
      <trkpt lat="45.85817" lon="3.96065">
        <ele>532.5</ele>
        <time>2017-04-13T16:56:17Z</time>
      </trkpt>
      <trkpt lat="45.85837" lon="3.96004">
        <ele>534.2</ele>
        <time>2017-04-13T16:56:24Z</time>
      </trkpt>
      <trkpt lat="45.85857" lon="3.95969">
        <ele>533.9</ele>
        <time>2017-04-13T16:56:29Z</time>
      </trkpt>
      <trkpt lat="45.85872" lon="3.95948">
        <ele>534.9</ele>
        <time>2017-04-13T16:56:32Z</time>
      </trkpt>
      <trkpt lat="45.85895" lon="3.95911">
        <ele>536.1</ele>
        <time>2017-04-13T16:56:38Z</time>
      </trkpt>
      <trkpt lat="45.85917" lon="3.95861">
        <ele>537.8</ele>
        <time>2017-04-13T16:56:43Z</time>
      </trkpt>
      <trkpt lat="45.85932" lon="3.95818">
        <ele>537.7</ele>
        <time>2017-04-13T16:56:48Z</time>
      </trkpt>
      <trkpt lat="45.8594" lon="3.95789">
        <ele>535.6</ele>
        <time>2017-04-13T16:56:51Z</time>
      </trkpt>
      <trkpt lat="45.85944" lon="3.95761">
        <ele>535.8</ele>
        <time>2017-04-13T16:56:54Z</time>
      </trkpt>
      <trkpt lat="45.85946" lon="3.95733">
        <ele>536.5</ele>
        <time>2017-04-13T16:56:57Z</time>
      </trkpt>
      <trkpt lat="45.85947" lon="3.95703">
        <ele>537.2</ele>
        <time>2017-04-13T16:57:00Z</time>
      </trkpt>
      <trkpt lat="45.85948" lon="3.95672">
        <ele>538.4</ele>
        <time>2017-04-13T16:57:03Z</time>
      </trkpt>
      <trkpt lat="45.8595" lon="3.95642">
        <ele>540</ele>
        <time>2017-04-13T16:57:06Z</time>
      </trkpt>
      <trkpt lat="45.85952" lon="3.95594">
        <ele>541.2</ele>
        <time>2017-04-13T16:57:11Z</time>
      </trkpt>
      <trkpt lat="45.85955" lon="3.9554">
        <ele>543.8</ele>
        <time>2017-04-13T16:57:17Z</time>
      </trkpt>
      <trkpt lat="45.85965" lon="3.95473">
        <ele>545.6</ele>
        <time>2017-04-13T16:57:24Z</time>
      </trkpt>
      <trkpt lat="45.85979" lon="3.95416">
        <ele>545.4</ele>
        <time>2017-04-13T16:57:30Z</time>
      </trkpt>
      <trkpt lat="45.85994" lon="3.95359">
        <ele>545.3</ele>
        <time>2017-04-13T16:57:36Z</time>
      </trkpt>
      <trkpt lat="45.86011" lon="3.95303">
        <ele>548.6</ele>
        <time>2017-04-13T16:57:42Z</time>
      </trkpt>
      <trkpt lat="45.86033" lon="3.95268">
        <ele>550.8</ele>
        <time>2017-04-13T16:57:47Z</time>
      </trkpt>
      <trkpt lat="45.86058" lon="3.95234">
        <ele>551.3</ele>
        <time>2017-04-13T16:57:52Z</time>
      </trkpt>
      <trkpt lat="45.86091" lon="3.95197">
        <ele>550.3</ele>
        <time>2017-04-13T16:57:58Z</time>
      </trkpt>
      <trkpt lat="45.86132" lon="3.95182">
        <ele>548.2</ele>
        <time>2017-04-13T16:58:04Z</time>
      </trkpt>
      <trkpt lat="45.86168" lon="3.95191">
        <ele>545.6</ele>
        <time>2017-04-13T16:58:09Z</time>
      </trkpt>
      <trkpt lat="45.86204" lon="3.95207">
        <ele>544.8</ele>
        <time>2017-04-13T16:58:14Z</time>
      </trkpt>
      <trkpt lat="45.8624" lon="3.95208">
        <ele>545.1</ele>
        <time>2017-04-13T16:58:19Z</time>
      </trkpt>
      <trkpt lat="45.86276" lon="3.95185">
        <ele>543.3</ele>
        <time>2017-04-13T16:58:25Z</time>
      </trkpt>
      <trkpt lat="45.86304" lon="3.95146">
        <ele>541.7</ele>
        <time>2017-04-13T16:58:31Z</time>
      </trkpt>
      <trkpt lat="45.86325" lon="3.95112">
        <ele>539.5</ele>
        <time>2017-04-13T16:58:36Z</time>
      </trkpt>
      <trkpt lat="45.86339" lon="3.95087">
        <ele>538.9</ele>
        <time>2017-04-13T16:58:39Z</time>
      </trkpt>
      <trkpt lat="45.86352" lon="3.95058">
        <ele>538.4</ele>
        <time>2017-04-13T16:58:42Z</time>
      </trkpt>
      <trkpt lat="45.86367" lon="3.95031">
        <ele>537.6</ele>
        <time>2017-04-13T16:58:45Z</time>
      </trkpt>
      <trkpt lat="45.86383" lon="3.95002">
        <ele>537.1</ele>
        <time>2017-04-13T16:58:48Z</time>
      </trkpt>
      <trkpt lat="45.86405" lon="3.94944">
        <ele>535.9</ele>
        <time>2017-04-13T16:58:53Z</time>
      </trkpt>
      <trkpt lat="45.8643" lon="3.94871">
        <ele>536.7</ele>
        <time>2017-04-13T16:59:00Z</time>
      </trkpt>
      <trkpt lat="45.86453" lon="3.94815">
        <ele>538</ele>
        <time>2017-04-13T16:59:06Z</time>
      </trkpt>
      <trkpt lat="45.86464" lon="3.94787">
        <ele>538.7</ele>
        <time>2017-04-13T16:59:09Z</time>
      </trkpt>
      <trkpt lat="45.86475" lon="3.94761">
        <ele>539</ele>
        <time>2017-04-13T16:59:12Z</time>
      </trkpt>
      <trkpt lat="45.86486" lon="3.94734">
        <ele>539.4</ele>
        <time>2017-04-13T16:59:15Z</time>
      </trkpt>
      <trkpt lat="45.86496" lon="3.94707">
        <ele>539.5</ele>
        <time>2017-04-13T16:59:18Z</time>
      </trkpt>
      <trkpt lat="45.86516" lon="3.94646">
        <ele>541.3</ele>
        <time>2017-04-13T16:59:25Z</time>
      </trkpt>
      <trkpt lat="45.86532" lon="3.94604">
        <ele>542.2</ele>
        <time>2017-04-13T16:59:30Z</time>
      </trkpt>
      <trkpt lat="45.8654" lon="3.94577">
        <ele>542.5</ele>
        <time>2017-04-13T16:59:33Z</time>
      </trkpt>
      <trkpt lat="45.86548" lon="3.94548">
        <ele>542.1</ele>
        <time>2017-04-13T16:59:36Z</time>
      </trkpt>
      <trkpt lat="45.86562" lon="3.94487">
        <ele>542.1</ele>
        <time>2017-04-13T16:59:42Z</time>
      </trkpt>
      <trkpt lat="45.8657" lon="3.94457">
        <ele>541.7</ele>
        <time>2017-04-13T16:59:45Z</time>
      </trkpt>
      <trkpt lat="45.86579" lon="3.94428">
        <ele>540.8</ele>
        <time>2017-04-13T16:59:48Z</time>
      </trkpt>
      <trkpt lat="45.86598" lon="3.94381">
        <ele>540.1</ele>
        <time>2017-04-13T16:59:53Z</time>
      </trkpt>
      <trkpt lat="45.86627" lon="3.94334">
        <ele>541.1</ele>
        <time>2017-04-13T16:59:59Z</time>
      </trkpt>
      <trkpt lat="45.86659" lon="3.94291">
        <ele>541.8</ele>
        <time>2017-04-13T17:00:05Z</time>
      </trkpt>
      <trkpt lat="45.8669" lon="3.94249">
        <ele>541.8</ele>
        <time>2017-04-13T17:00:11Z</time>
      </trkpt>
      <trkpt lat="45.8672" lon="3.94208">
        <ele>542.7</ele>
        <time>2017-04-13T17:00:17Z</time>
      </trkpt>
      <trkpt lat="45.86749" lon="3.94166">
        <ele>543.4</ele>
        <time>2017-04-13T17:00:23Z</time>
      </trkpt>
      <trkpt lat="45.86774" lon="3.94121">
        <ele>547.2</ele>
        <time>2017-04-13T17:00:29Z</time>
      </trkpt>
      <trkpt lat="45.86794" lon="3.94075">
        <ele>550.1</ele>
        <time>2017-04-13T17:00:35Z</time>
      </trkpt>
      <trkpt lat="45.86811" lon="3.94026">
        <ele>552.6</ele>
        <time>2017-04-13T17:00:41Z</time>
      </trkpt>
      <trkpt lat="45.86824" lon="3.93977">
        <ele>554.5</ele>
        <time>2017-04-13T17:00:47Z</time>
      </trkpt>
      <trkpt lat="45.86834" lon="3.93914">
        <ele>555.1</ele>
        <time>2017-04-13T17:00:54Z</time>
      </trkpt>
      <trkpt lat="45.86837" lon="3.93866">
        <ele>555.5</ele>
        <time>2017-04-13T17:00:59Z</time>
      </trkpt>
      <trkpt lat="45.86841" lon="3.93812">
        <ele>556.6</ele>
        <time>2017-04-13T17:01:05Z</time>
      </trkpt>
      <trkpt lat="45.86844" lon="3.93767">
        <ele>556.5</ele>
        <time>2017-04-13T17:01:10Z</time>
      </trkpt>
      <trkpt lat="45.86847" lon="3.93712">
        <ele>557.1</ele>
        <time>2017-04-13T17:01:16Z</time>
      </trkpt>
      <trkpt lat="45.86849" lon="3.93661">
        <ele>559.4</ele>
        <time>2017-04-13T17:01:21Z</time>
      </trkpt>
      <trkpt lat="45.86852" lon="3.93613">
        <ele>561.6</ele>
        <time>2017-04-13T17:01:26Z</time>
      </trkpt>
      <trkpt lat="45.86856" lon="3.93557">
        <ele>563.9</ele>
        <time>2017-04-13T17:01:32Z</time>
      </trkpt>
      <trkpt lat="45.86861" lon="3.93512">
        <ele>566.8</ele>
        <time>2017-04-13T17:01:37Z</time>
      </trkpt>
      <trkpt lat="45.86867" lon="3.9346">
        <ele>570.1</ele>
        <time>2017-04-13T17:01:43Z</time>
      </trkpt>
      <trkpt lat="45.86873" lon="3.9341">
        <ele>572.5</ele>
        <time>2017-04-13T17:01:49Z</time>
      </trkpt>
      <trkpt lat="45.86876" lon="3.93384">
        <ele>574.3</ele>
        <time>2017-04-13T17:01:52Z</time>
      </trkpt>
      <trkpt lat="45.86881" lon="3.93344">
        <ele>576.3</ele>
        <time>2017-04-13T17:01:57Z</time>
      </trkpt>
      <trkpt lat="45.86884" lon="3.9332">
        <ele>577.5</ele>
        <time>2017-04-13T17:02:00Z</time>
      </trkpt>
      <trkpt lat="45.86889" lon="3.93287">
        <ele>580.2</ele>
        <time>2017-04-13T17:02:04Z</time>
      </trkpt>
      <trkpt lat="45.86896" lon="3.93237">
        <ele>583.3</ele>
        <time>2017-04-13T17:02:10Z</time>
      </trkpt>
      <trkpt lat="45.86901" lon="3.93186">
        <ele>585.1</ele>
        <time>2017-04-13T17:02:16Z</time>
      </trkpt>
      <trkpt lat="45.86907" lon="3.93143">
        <ele>586.7</ele>
        <time>2017-04-13T17:02:21Z</time>
      </trkpt>
      <trkpt lat="45.8691" lon="3.93117">
        <ele>587.4</ele>
        <time>2017-04-13T17:02:24Z</time>
      </trkpt>
      <trkpt lat="45.86912" lon="3.93091">
        <ele>587.4</ele>
        <time>2017-04-13T17:02:27Z</time>
      </trkpt>
      <trkpt lat="45.86918" lon="3.93048">
        <ele>588.2</ele>
        <time>2017-04-13T17:02:32Z</time>
      </trkpt>
      <trkpt lat="45.86925" lon="3.92996">
        <ele>588.3</ele>
        <time>2017-04-13T17:02:38Z</time>
      </trkpt>
      <trkpt lat="45.86929" lon="3.9295">
        <ele>587.7</ele>
        <time>2017-04-13T17:02:43Z</time>
      </trkpt>
      <trkpt lat="45.86933" lon="3.92923">
        <ele>587.4</ele>
        <time>2017-04-13T17:02:46Z</time>
      </trkpt>
      <trkpt lat="45.86942" lon="3.92867">
        <ele>586</ele>
        <time>2017-04-13T17:02:52Z</time>
      </trkpt>
      <trkpt lat="45.86949" lon="3.92839">
        <ele>585.5</ele>
        <time>2017-04-13T17:02:55Z</time>
      </trkpt>
      <trkpt lat="45.86958" lon="3.92812">
        <ele>584.5</ele>
        <time>2017-04-13T17:02:58Z</time>
      </trkpt>
      <trkpt lat="45.8697" lon="3.92786">
        <ele>583.8</ele>
        <time>2017-04-13T17:03:01Z</time>
      </trkpt>
      <trkpt lat="45.86985" lon="3.92761">
        <ele>582.6</ele>
        <time>2017-04-13T17:03:04Z</time>
      </trkpt>
      <trkpt lat="45.8702" lon="3.92718">
        <ele>581.4</ele>
        <time>2017-04-13T17:03:10Z</time>
      </trkpt>
      <trkpt lat="45.87061" lon="3.92689">
        <ele>580.6</ele>
        <time>2017-04-13T17:03:16Z</time>
      </trkpt>
      <trkpt lat="45.87096" lon="3.92671">
        <ele>580.8</ele>
        <time>2017-04-13T17:03:21Z</time>
      </trkpt>
      <trkpt lat="45.87132" lon="3.92655">
        <ele>579.9</ele>
        <time>2017-04-13T17:03:26Z</time>
      </trkpt>
      <trkpt lat="45.87177" lon="3.92631">
        <ele>578.8</ele>
        <time>2017-04-13T17:03:32Z</time>
      </trkpt>
      <trkpt lat="45.87225" lon="3.92581">
        <ele>577.7</ele>
        <time>2017-04-13T17:03:39Z</time>
      </trkpt>
      <trkpt lat="45.87259" lon="3.92515">
        <ele>573.8</ele>
        <time>2017-04-13T17:03:45Z</time>
      </trkpt>
      <trkpt lat="45.87283" lon="3.92429">
        <ele>566.7</ele>
        <time>2017-04-13T17:03:51Z</time>
      </trkpt>
      <trkpt lat="45.87308" lon="3.9234">
        <ele>560.8</ele>
        <time>2017-04-13T17:03:57Z</time>
      </trkpt>
      <trkpt lat="45.8734" lon="3.92256">
        <ele>558.8</ele>
        <time>2017-04-13T17:04:03Z</time>
      </trkpt>
      <trkpt lat="45.87379" lon="3.92175">
        <ele>558.7</ele>
        <time>2017-04-13T17:04:10Z</time>
      </trkpt>
      <trkpt lat="45.87423" lon="3.92115">
        <ele>555.8</ele>
        <time>2017-04-13T17:04:16Z</time>
      </trkpt>
      <trkpt lat="45.87453" lon="3.92049">
        <ele>553.2</ele>
        <time>2017-04-13T17:04:22Z</time>
      </trkpt>
      <trkpt lat="45.87446" lon="3.91941">
        <ele>550.2</ele>
        <time>2017-04-13T17:04:29Z</time>
      </trkpt>
      <trkpt lat="45.8745" lon="3.91832">
        <ele>546.8</ele>
        <time>2017-04-13T17:04:35Z</time>
      </trkpt>
      <trkpt lat="45.87466" lon="3.91718">
        <ele>538.2</ele>
        <time>2017-04-13T17:04:41Z</time>
      </trkpt>
      <trkpt lat="45.87466" lon="3.91634">
        <ele>533.2</ele>
        <time>2017-04-13T17:04:46Z</time>
      </trkpt>
      <trkpt lat="45.87464" lon="3.91539">
        <ele>527.9</ele>
        <time>2017-04-13T17:04:52Z</time>
      </trkpt>
      <trkpt lat="45.87462" lon="3.9145">
        <ele>524.3</ele>
        <time>2017-04-13T17:04:58Z</time>
      </trkpt>
      <trkpt lat="45.87453" lon="3.91378">
        <ele>522</ele>
        <time>2017-04-13T17:05:03Z</time>
      </trkpt>
      <trkpt lat="45.87411" lon="3.91332">
        <ele>519.9</ele>
        <time>2017-04-13T17:05:09Z</time>
      </trkpt>
      <trkpt lat="45.87369" lon="3.91283">
        <ele>517.2</ele>
        <time>2017-04-13T17:05:15Z</time>
      </trkpt>
      <trkpt lat="45.8736" lon="3.91222">
        <ele>514.9</ele>
        <time>2017-04-13T17:05:20Z</time>
      </trkpt>
      <trkpt lat="45.87357" lon="3.91183">
        <ele>513.4</ele>
        <time>2017-04-13T17:05:23Z</time>
      </trkpt>
      <trkpt lat="45.87354" lon="3.91144">
        <ele>513.2</ele>
        <time>2017-04-13T17:05:26Z</time>
      </trkpt>
      <trkpt lat="45.87352" lon="3.91107">
        <ele>513.3</ele>
        <time>2017-04-13T17:05:29Z</time>
      </trkpt>
      <trkpt lat="45.87365" lon="3.91041">
        <ele>514.5</ele>
        <time>2017-04-13T17:05:35Z</time>
      </trkpt>
      <trkpt lat="45.87392" lon="3.91003">
        <ele>515.1</ele>
        <time>2017-04-13T17:05:40Z</time>
      </trkpt>
      <trkpt lat="45.87434" lon="3.90966">
        <ele>514.7</ele>
        <time>2017-04-13T17:05:47Z</time>
      </trkpt>
      <trkpt lat="45.87457" lon="3.90923">
        <ele>512.4</ele>
        <time>2017-04-13T17:05:52Z</time>
      </trkpt>
      <trkpt lat="45.87466" lon="3.90893">
        <ele>512</ele>
        <time>2017-04-13T17:05:55Z</time>
      </trkpt>
      <trkpt lat="45.87476" lon="3.90848">
        <ele>512</ele>
        <time>2017-04-13T17:06:00Z</time>
      </trkpt>
      <trkpt lat="45.87485" lon="3.90802">
        <ele>512.1</ele>
        <time>2017-04-13T17:06:05Z</time>
      </trkpt>
      <trkpt lat="45.8747" lon="3.90771">
        <ele>513.3</ele>
        <time>2017-04-13T17:06:10Z</time>
      </trkpt>
      <trkpt lat="45.87432" lon="3.90737">
        <ele>514.3</ele>
        <time>2017-04-13T17:06:16Z</time>
      </trkpt>
      <trkpt lat="45.87428" lon="3.90676">
        <ele>515.7</ele>
        <time>2017-04-13T17:06:23Z</time>
      </trkpt>
      <trkpt lat="45.87422" lon="3.9063">
        <ele>517.6</ele>
        <time>2017-04-13T17:06:29Z</time>
      </trkpt>
      <trkpt lat="45.87399" lon="3.90599">
        <ele>519.2</ele>
        <time>2017-04-13T17:06:35Z</time>
      </trkpt>
      <trkpt lat="45.87373" lon="3.90588">
        <ele>519.5</ele>
        <time>2017-04-13T17:06:41Z</time>
      </trkpt>
      <trkpt lat="45.8734" lon="3.90582">
        <ele>519.7</ele>
        <time>2017-04-13T17:06:46Z</time>
      </trkpt>
      <trkpt lat="45.87324" lon="3.90617">
        <ele>519.9</ele>
        <time>2017-04-13T17:06:53Z</time>
      </trkpt>
      <trkpt lat="45.87322" lon="3.90656">
        <ele>520.6</ele>
        <time>2017-04-13T17:06:59Z</time>
      </trkpt>
      <trkpt lat="45.8732" lon="3.90675">
        <ele>521</ele>
        <time>2017-04-13T17:07:02Z</time>
      </trkpt>
      <trkpt lat="45.87316" lon="3.90703">
        <ele>521.2</ele>
        <time>2017-04-13T17:07:07Z</time>
      </trkpt>
      <trkpt lat="45.87311" lon="3.90729">
        <ele>520.8</ele>
        <time>2017-04-13T17:07:10Z</time>
      </trkpt>
      <trkpt lat="45.87302" lon="3.90777">
        <ele>519.7</ele>
        <time>2017-04-13T17:07:15Z</time>
      </trkpt>
      <trkpt lat="45.87298" lon="3.90804">
        <ele>518.6</ele>
        <time>2017-04-13T17:07:18Z</time>
      </trkpt>
      <trkpt lat="45.87294" lon="3.9084">
        <ele>517.4</ele>
        <time>2017-04-13T17:07:22Z</time>
      </trkpt>
      <trkpt lat="45.87289" lon="3.90887">
        <ele>516</ele>
        <time>2017-04-13T17:07:27Z</time>
      </trkpt>
      <trkpt lat="45.87285" lon="3.90917">
        <ele>515.3</ele>
        <time>2017-04-13T17:07:30Z</time>
      </trkpt>
      <trkpt lat="45.87283" lon="3.90966">
        <ele>514</ele>
        <time>2017-04-13T17:07:35Z</time>
      </trkpt>
      <trkpt lat="45.87283" lon="3.91013">
        <ele>514.8</ele>
        <time>2017-04-13T17:07:40Z</time>
      </trkpt>
      <trkpt lat="45.8728" lon="3.91049">
        <ele>513.4</ele>
        <time>2017-04-13T17:07:47Z</time>
      </trkpt>
      <trkpt lat="45.87268" lon="3.91076">
        <ele>514.7</ele>
        <time>2017-04-13T17:07:53Z</time>
      </trkpt>
      <trkpt lat="45.87237" lon="3.9106">
        <ele>516.1</ele>
        <time>2017-04-13T17:07:59Z</time>
      </trkpt>
      <trkpt lat="45.87221" lon="3.91028">
        <ele>516.3</ele>
        <time>2017-04-13T17:08:04Z</time>
      </trkpt>
      <trkpt lat="45.87216" lon="3.91">
        <ele>513.8</ele>
        <time>2017-04-13T17:08:07Z</time>
      </trkpt>
      <trkpt lat="45.87204" lon="3.90962">
        <ele>510.8</ele>
        <time>2017-04-13T17:08:11Z</time>
      </trkpt>
      <trkpt lat="45.87171" lon="3.9092">
        <ele>506.8</ele>
        <time>2017-04-13T17:08:17Z</time>
      </trkpt>
      <trkpt lat="45.87136" lon="3.90895">
        <ele>503</ele>
        <time>2017-04-13T17:08:23Z</time>
      </trkpt>
      <trkpt lat="45.87108" lon="3.90866">
        <ele>499.8</ele>
        <time>2017-04-13T17:08:29Z</time>
      </trkpt>
      <trkpt lat="45.87089" lon="3.90852">
        <ele>497.8</ele>
        <time>2017-04-13T17:08:33Z</time>
      </trkpt>
      <trkpt lat="45.87065" lon="3.90835">
        <ele>495.9</ele>
        <time>2017-04-13T17:08:38Z</time>
      </trkpt>
      <trkpt lat="45.87038" lon="3.90813">
        <ele>495.9</ele>
        <time>2017-04-13T17:08:45Z</time>
      </trkpt>
      <trkpt lat="45.87005" lon="3.90815">
        <ele>492.6</ele>
        <time>2017-04-13T17:08:52Z</time>
      </trkpt>
      <trkpt lat="45.86967" lon="3.90839">
        <ele>488.4</ele>
        <time>2017-04-13T17:08:58Z</time>
      </trkpt>
      <trkpt lat="45.86917" lon="3.90857">
        <ele>485.2</ele>
        <time>2017-04-13T17:09:04Z</time>
      </trkpt>
      <trkpt lat="45.8687" lon="3.90869">
        <ele>481.4</ele>
        <time>2017-04-13T17:09:10Z</time>
      </trkpt>
      <trkpt lat="45.86834" lon="3.90864">
        <ele>478.9</ele>
        <time>2017-04-13T17:09:15Z</time>
      </trkpt>
      <trkpt lat="45.86807" lon="3.90854">
        <ele>476.7</ele>
        <time>2017-04-13T17:09:20Z</time>
      </trkpt>
      <trkpt lat="45.86749" lon="3.90817">
        <ele>477.7</ele>
        <time>2017-04-13T17:09:27Z</time>
      </trkpt>
      <trkpt lat="45.86739" lon="3.90869">
        <ele>477.3</ele>
        <time>2017-04-13T17:09:33Z</time>
      </trkpt>
      <trkpt lat="45.86725" lon="3.90928">
        <ele>474.5</ele>
        <time>2017-04-13T17:09:40Z</time>
      </trkpt>
      <trkpt lat="45.8671" lon="3.90979">
        <ele>473.9</ele>
        <time>2017-04-13T17:09:46Z</time>
      </trkpt>
      <trkpt lat="45.86698" lon="3.91021">
        <ele>472.6</ele>
        <time>2017-04-13T17:09:51Z</time>
      </trkpt>
      <trkpt lat="45.86674" lon="3.91069">
        <ele>470.7</ele>
        <time>2017-04-13T17:09:57Z</time>
      </trkpt>
      <trkpt lat="45.86638" lon="3.91091">
        <ele>469.2</ele>
        <time>2017-04-13T17:10:02Z</time>
      </trkpt>
      <trkpt lat="45.86581" lon="3.91109">
        <ele>467.6</ele>
        <time>2017-04-13T17:10:08Z</time>
      </trkpt>
      <trkpt lat="45.86545" lon="3.91121">
        <ele>464.7</ele>
        <time>2017-04-13T17:10:13Z</time>
      </trkpt>
      <trkpt lat="45.86518" lon="3.91134">
        <ele>462.3</ele>
        <time>2017-04-13T17:10:18Z</time>
      </trkpt>
      <trkpt lat="45.86493" lon="3.91131">
        <ele>460</ele>
        <time>2017-04-13T17:10:23Z</time>
      </trkpt>
      <trkpt lat="45.8646" lon="3.91115">
        <ele>457.8</ele>
        <time>2017-04-13T17:10:28Z</time>
      </trkpt>
      <trkpt lat="45.86421" lon="3.911">
        <ele>456.6</ele>
        <time>2017-04-13T17:10:34Z</time>
      </trkpt>
      <trkpt lat="45.86403" lon="3.911">
        <ele>456.3</ele>
        <time>2017-04-13T17:10:37Z</time>
      </trkpt>
      <trkpt lat="45.86363" lon="3.91089">
        <ele>458</ele>
        <time>2017-04-13T17:10:42Z</time>
      </trkpt>
      <trkpt lat="45.86339" lon="3.91086">
        <ele>463.6</ele>
        <time>2017-04-13T17:10:45Z</time>
      </trkpt>
      <trkpt lat="45.86313" lon="3.91103">
        <ele>471.1</ele>
        <time>2017-04-13T17:10:49Z</time>
      </trkpt>
      <trkpt lat="45.86296" lon="3.91122">
        <ele>475.3</ele>
        <time>2017-04-13T17:10:52Z</time>
      </trkpt>
      <trkpt lat="45.86273" lon="3.91172">
        <ele>477</ele>
        <time>2017-04-13T17:10:58Z</time>
      </trkpt>
      <trkpt lat="45.86257" lon="3.91231">
        <ele>478.4</ele>
        <time>2017-04-13T17:11:04Z</time>
      </trkpt>
      <trkpt lat="45.86232" lon="3.91281">
        <ele>481</ele>
        <time>2017-04-13T17:11:10Z</time>
      </trkpt>
      <trkpt lat="45.86205" lon="3.91323">
        <ele>484.8</ele>
        <time>2017-04-13T17:11:16Z</time>
      </trkpt>
      <trkpt lat="45.86184" lon="3.91359">
        <ele>487.7</ele>
        <time>2017-04-13T17:11:21Z</time>
      </trkpt>
      <trkpt lat="45.86174" lon="3.91386">
        <ele>488.9</ele>
        <time>2017-04-13T17:11:24Z</time>
      </trkpt>
      <trkpt lat="45.86169" lon="3.91417">
        <ele>488.6</ele>
        <time>2017-04-13T17:11:27Z</time>
      </trkpt>
      <trkpt lat="45.86169" lon="3.91484">
        <ele>488.7</ele>
        <time>2017-04-13T17:11:33Z</time>
      </trkpt>
      <trkpt lat="45.8616" lon="3.91535">
        <ele>489.6</ele>
        <time>2017-04-13T17:11:38Z</time>
      </trkpt>
      <trkpt lat="45.86155" lon="3.91608">
        <ele>489</ele>
        <time>2017-04-13T17:11:44Z</time>
      </trkpt>
      <trkpt lat="45.86172" lon="3.91676">
        <ele>486.1</ele>
        <time>2017-04-13T17:11:50Z</time>
      </trkpt>
      <trkpt lat="45.86182" lon="3.91706">
        <ele>484.3</ele>
        <time>2017-04-13T17:11:53Z</time>
      </trkpt>
      <trkpt lat="45.86207" lon="3.91758">
        <ele>480</ele>
        <time>2017-04-13T17:11:59Z</time>
      </trkpt>
      <trkpt lat="45.86226" lon="3.91805">
        <ele>477.1</ele>
        <time>2017-04-13T17:12:05Z</time>
      </trkpt>
      <trkpt lat="45.8624" lon="3.91853">
        <ele>475.4</ele>
        <time>2017-04-13T17:12:10Z</time>
      </trkpt>
      <trkpt lat="45.86252" lon="3.91908">
        <ele>474.1</ele>
        <time>2017-04-13T17:12:16Z</time>
      </trkpt>
      <trkpt lat="45.86242" lon="3.91959">
        <ele>471.8</ele>
        <time>2017-04-13T17:12:22Z</time>
      </trkpt>
      <trkpt lat="45.86218" lon="3.92007">
        <ele>469</ele>
        <time>2017-04-13T17:12:28Z</time>
      </trkpt>
      <trkpt lat="45.86188" lon="3.92059">
        <ele>467.6</ele>
        <time>2017-04-13T17:12:34Z</time>
      </trkpt>
      <trkpt lat="45.86168" lon="3.921">
        <ele>467.5</ele>
        <time>2017-04-13T17:12:39Z</time>
      </trkpt>
      <trkpt lat="45.86155" lon="3.92143">
        <ele>467.8</ele>
        <time>2017-04-13T17:12:44Z</time>
      </trkpt>
      <trkpt lat="45.86135" lon="3.9219">
        <ele>474.4</ele>
        <time>2017-04-13T17:12:49Z</time>
      </trkpt>
      <trkpt lat="45.86111" lon="3.92238">
        <ele>478</ele>
        <time>2017-04-13T17:12:55Z</time>
      </trkpt>
      <trkpt lat="45.86095" lon="3.92273">
        <ele>479.2</ele>
        <time>2017-04-13T17:12:59Z</time>
      </trkpt>
      <trkpt lat="45.86076" lon="3.92327">
        <ele>480.8</ele>
        <time>2017-04-13T17:13:05Z</time>
      </trkpt>
      <trkpt lat="45.8605" lon="3.92375">
        <ele>484.3</ele>
        <time>2017-04-13T17:13:11Z</time>
      </trkpt>
      <trkpt lat="45.86025" lon="3.92422">
        <ele>488.5</ele>
        <time>2017-04-13T17:13:17Z</time>
      </trkpt>
      <trkpt lat="45.86005" lon="3.92477">
        <ele>490.5</ele>
        <time>2017-04-13T17:13:24Z</time>
      </trkpt>
      <trkpt lat="45.85986" lon="3.92512">
        <ele>491</ele>
        <time>2017-04-13T17:13:30Z</time>
      </trkpt>
      <trkpt lat="45.85955" lon="3.92525">
        <ele>492.5</ele>
        <time>2017-04-13T17:13:35Z</time>
      </trkpt>
      <trkpt lat="45.85915" lon="3.92531">
        <ele>491.5</ele>
        <time>2017-04-13T17:13:40Z</time>
      </trkpt>
      <trkpt lat="45.85904" lon="3.92567">
        <ele>491</ele>
        <time>2017-04-13T17:13:46Z</time>
      </trkpt>
      <trkpt lat="45.85892" lon="3.9262">
        <ele>487.3</ele>
        <time>2017-04-13T17:13:52Z</time>
      </trkpt>
      <trkpt lat="45.85869" lon="3.92656">
        <ele>486.1</ele>
        <time>2017-04-13T17:13:57Z</time>
      </trkpt>
      <trkpt lat="45.85857" lon="3.92678">
        <ele>485.2</ele>
        <time>2017-04-13T17:14:00Z</time>
      </trkpt>
      <trkpt lat="45.85848" lon="3.92704">
        <ele>484.4</ele>
        <time>2017-04-13T17:14:03Z</time>
      </trkpt>
      <trkpt lat="45.85836" lon="3.9273">
        <ele>484.7</ele>
        <time>2017-04-13T17:14:06Z</time>
      </trkpt>
      <trkpt lat="45.85823" lon="3.92769">
        <ele>485.4</ele>
        <time>2017-04-13T17:14:11Z</time>
      </trkpt>
      <trkpt lat="45.85825" lon="3.92813">
        <ele>487.4</ele>
        <time>2017-04-13T17:14:17Z</time>
      </trkpt>
      <trkpt lat="45.85813" lon="3.92847">
        <ele>489.8</ele>
        <time>2017-04-13T17:14:22Z</time>
      </trkpt>
      <trkpt lat="45.85794" lon="3.92879">
        <ele>491.8</ele>
        <time>2017-04-13T17:14:27Z</time>
      </trkpt>
      <trkpt lat="45.85784" lon="3.92897">
        <ele>493.8</ele>
        <time>2017-04-13T17:14:30Z</time>
      </trkpt>
      <trkpt lat="45.85774" lon="3.92917">
        <ele>495.6</ele>
        <time>2017-04-13T17:14:33Z</time>
      </trkpt>
      <trkpt lat="45.85765" lon="3.92935">
        <ele>498.1</ele>
        <time>2017-04-13T17:14:36Z</time>
      </trkpt>
      <trkpt lat="45.85754" lon="3.9296">
        <ele>502.1</ele>
        <time>2017-04-13T17:14:41Z</time>
      </trkpt>
      <trkpt lat="45.85742" lon="3.92984">
        <ele>505.8</ele>
        <time>2017-04-13T17:14:47Z</time>
      </trkpt>
      <trkpt lat="45.85732" lon="3.93009">
        <ele>507</ele>
        <time>2017-04-13T17:14:53Z</time>
      </trkpt>
      <trkpt lat="45.85715" lon="3.9304">
        <ele>506.7</ele>
        <time>2017-04-13T17:15:00Z</time>
      </trkpt>
      <trkpt lat="45.85703" lon="3.93076">
        <ele>501.1</ele>
        <time>2017-04-13T17:15:06Z</time>
      </trkpt>
      <trkpt lat="45.85697" lon="3.93109">
        <ele>497.2</ele>
        <time>2017-04-13T17:15:12Z</time>
      </trkpt>
      <trkpt lat="45.85695" lon="3.93132">
        <ele>496.2</ele>
        <time>2017-04-13T17:15:17Z</time>
      </trkpt>
      <trkpt lat="45.85682" lon="3.93171">
        <ele>494.8</ele>
        <time>2017-04-13T17:15:26Z</time>
      </trkpt>
      <trkpt lat="45.8568" lon="3.93198">
        <ele>492.2</ele>
        <time>2017-04-13T17:15:32Z</time>
      </trkpt>
      <trkpt lat="45.85696" lon="3.93215">
        <ele>487.2</ele>
        <time>2017-04-13T17:15:40Z</time>
      </trkpt>
      <trkpt lat="45.85733" lon="3.93223">
        <ele>482</ele>
        <time>2017-04-13T17:15:48Z</time>
      </trkpt>
      <trkpt lat="45.85763" lon="3.93231">
        <ele>478.3</ele>
        <time>2017-04-13T17:15:53Z</time>
      </trkpt>
      <trkpt lat="45.858" lon="3.93238">
        <ele>474.6</ele>
        <time>2017-04-13T17:15:59Z</time>
      </trkpt>
      <trkpt lat="45.85834" lon="3.93243">
        <ele>472.1</ele>
        <time>2017-04-13T17:16:04Z</time>
      </trkpt>
      <trkpt lat="45.85876" lon="3.93251">
        <ele>469.5</ele>
        <time>2017-04-13T17:16:10Z</time>
      </trkpt>
      <trkpt lat="45.85897" lon="3.9325">
        <ele>468.3</ele>
        <time>2017-04-13T17:16:13Z</time>
      </trkpt>
      <trkpt lat="45.85935" lon="3.93241">
        <ele>465.9</ele>
        <time>2017-04-13T17:16:19Z</time>
      </trkpt>
      <trkpt lat="45.85951" lon="3.9324">
        <ele>464.9</ele>
        <time>2017-04-13T17:16:22Z</time>
      </trkpt>
      <trkpt lat="45.85974" lon="3.9324">
        <ele>462.5</ele>
        <time>2017-04-13T17:16:27Z</time>
      </trkpt>
      <trkpt lat="45.86" lon="3.93248">
        <ele>459.8</ele>
        <time>2017-04-13T17:16:32Z</time>
      </trkpt>
      <trkpt lat="45.86035" lon="3.93265">
        <ele>454.5</ele>
        <time>2017-04-13T17:16:38Z</time>
      </trkpt>
      <trkpt lat="45.86065" lon="3.93288">
        <ele>449.6</ele>
        <time>2017-04-13T17:16:44Z</time>
      </trkpt>
      <trkpt lat="45.86082" lon="3.93319">
        <ele>446.2</ele>
        <time>2017-04-13T17:16:50Z</time>
      </trkpt>
      <trkpt lat="45.86096" lon="3.9335">
        <ele>443.5</ele>
        <time>2017-04-13T17:16:54Z</time>
      </trkpt>
      <trkpt lat="45.86116" lon="3.93387">
        <ele>438.6</ele>
        <time>2017-04-13T17:16:59Z</time>
      </trkpt>
      <trkpt lat="45.86131" lon="3.93421">
        <ele>435</ele>
        <time>2017-04-13T17:17:05Z</time>
      </trkpt>
      <trkpt lat="45.8612" lon="3.93453">
        <ele>435.5</ele>
        <time>2017-04-13T17:17:11Z</time>
      </trkpt>
      <trkpt lat="45.861" lon="3.93506">
        <ele>442.1</ele>
        <time>2017-04-13T17:17:16Z</time>
      </trkpt>
      <trkpt lat="45.8606" lon="3.93536">
        <ele>447</ele>
        <time>2017-04-13T17:17:23Z</time>
      </trkpt>
      <trkpt lat="45.8602" lon="3.93558">
        <ele>451.8</ele>
        <time>2017-04-13T17:17:28Z</time>
      </trkpt>
      <trkpt lat="45.86006" lon="3.93585">
        <ele>452.1</ele>
        <time>2017-04-13T17:17:34Z</time>
      </trkpt>
      <trkpt lat="45.86001" lon="3.93619">
        <ele>451.3</ele>
        <time>2017-04-13T17:17:39Z</time>
      </trkpt>
      <trkpt lat="45.86" lon="3.93636">
        <ele>450.1</ele>
        <time>2017-04-13T17:17:42Z</time>
      </trkpt>
      <trkpt lat="45.85998" lon="3.93671">
        <ele>449.4</ele>
        <time>2017-04-13T17:17:47Z</time>
      </trkpt>
      <trkpt lat="45.85994" lon="3.93733">
        <ele>446.5</ele>
        <time>2017-04-13T17:17:54Z</time>
      </trkpt>
      <trkpt lat="45.85984" lon="3.93779">
        <ele>446.5</ele>
        <time>2017-04-13T17:17:59Z</time>
      </trkpt>
      <trkpt lat="45.85973" lon="3.93824">
        <ele>445.5</ele>
        <time>2017-04-13T17:18:05Z</time>
      </trkpt>
      <trkpt lat="45.85983" lon="3.93854">
        <ele>447.8</ele>
        <time>2017-04-13T17:18:11Z</time>
      </trkpt>
      <trkpt lat="45.85996" lon="3.93884">
        <ele>448.4</ele>
        <time>2017-04-13T17:18:14Z</time>
      </trkpt>
      <trkpt lat="45.86002" lon="3.93937">
        <ele>450.1</ele>
        <time>2017-04-13T17:18:20Z</time>
      </trkpt>
      <trkpt lat="45.85981" lon="3.93966">
        <ele>454.6</ele>
        <time>2017-04-13T17:18:26Z</time>
      </trkpt>
      <trkpt lat="45.85941" lon="3.93988">
        <ele>457.4</ele>
        <time>2017-04-13T17:18:31Z</time>
      </trkpt>
      <trkpt lat="45.8592" lon="3.94014">
        <ele>457.5</ele>
        <time>2017-04-13T17:18:35Z</time>
      </trkpt>
      <trkpt lat="45.85902" lon="3.94058">
        <ele>457.7</ele>
        <time>2017-04-13T17:18:41Z</time>
      </trkpt>
      <trkpt lat="45.85879" lon="3.9411">
        <ele>457.2</ele>
        <time>2017-04-13T17:18:46Z</time>
      </trkpt>
      <trkpt lat="45.85867" lon="3.94135">
        <ele>457.5</ele>
        <time>2017-04-13T17:18:49Z</time>
      </trkpt>
      <trkpt lat="45.85847" lon="3.94176">
        <ele>460.1</ele>
        <time>2017-04-13T17:18:54Z</time>
      </trkpt>
      <trkpt lat="45.85827" lon="3.94226">
        <ele>461.6</ele>
        <time>2017-04-13T17:19:01Z</time>
      </trkpt>
      <trkpt lat="45.858" lon="3.9427">
        <ele>465</ele>
        <time>2017-04-13T17:19:06Z</time>
      </trkpt>
      <trkpt lat="45.85763" lon="3.94298">
        <ele>466.2</ele>
        <time>2017-04-13T17:19:12Z</time>
      </trkpt>
      <trkpt lat="45.85727" lon="3.94318">
        <ele>466</ele>
        <time>2017-04-13T17:19:18Z</time>
      </trkpt>
      <trkpt lat="45.85685" lon="3.94321">
        <ele>466.4</ele>
        <time>2017-04-13T17:19:24Z</time>
      </trkpt>
      <trkpt lat="45.85646" lon="3.94321">
        <ele>464.4</ele>
        <time>2017-04-13T17:19:29Z</time>
      </trkpt>
      <trkpt lat="45.85609" lon="3.9434">
        <ele>461.6</ele>
        <time>2017-04-13T17:19:34Z</time>
      </trkpt>
      <trkpt lat="45.85571" lon="3.94361">
        <ele>459.6</ele>
        <time>2017-04-13T17:19:41Z</time>
      </trkpt>
      <trkpt lat="45.8553" lon="3.94382">
        <ele>457.7</ele>
        <time>2017-04-13T17:19:46Z</time>
      </trkpt>
      <trkpt lat="45.85504" lon="3.94394">
        <ele>457.1</ele>
        <time>2017-04-13T17:19:50Z</time>
      </trkpt>
      <trkpt lat="45.85472" lon="3.94421">
        <ele>456.1</ele>
        <time>2017-04-13T17:19:56Z</time>
      </trkpt>
      <trkpt lat="45.85438" lon="3.9446">
        <ele>454.9</ele>
        <time>2017-04-13T17:20:01Z</time>
      </trkpt>
      <trkpt lat="45.85421" lon="3.94481">
        <ele>454.7</ele>
        <time>2017-04-13T17:20:05Z</time>
      </trkpt>
      <trkpt lat="45.85398" lon="3.94528">
        <ele>454</ele>
        <time>2017-04-13T17:20:10Z</time>
      </trkpt>
      <trkpt lat="45.85387" lon="3.94585">
        <ele>453.8</ele>
        <time>2017-04-13T17:20:16Z</time>
      </trkpt>
      <trkpt lat="45.85365" lon="3.9462">
        <ele>455</ele>
        <time>2017-04-13T17:20:21Z</time>
      </trkpt>
      <trkpt lat="45.8533" lon="3.94635">
        <ele>454.5</ele>
        <time>2017-04-13T17:20:26Z</time>
      </trkpt>
      <trkpt lat="45.8531" lon="3.94647">
        <ele>453.6</ele>
        <time>2017-04-13T17:20:29Z</time>
      </trkpt>
      <trkpt lat="45.85291" lon="3.94665">
        <ele>453.3</ele>
        <time>2017-04-13T17:20:32Z</time>
      </trkpt>
      <trkpt lat="45.85262" lon="3.94714">
        <ele>453.2</ele>
        <time>2017-04-13T17:20:38Z</time>
      </trkpt>
      <trkpt lat="45.85253" lon="3.94773">
        <ele>452.3</ele>
        <time>2017-04-13T17:20:44Z</time>
      </trkpt>
      <trkpt lat="45.85256" lon="3.94824">
        <ele>452.6</ele>
        <time>2017-04-13T17:20:49Z</time>
      </trkpt>
      <trkpt lat="45.85251" lon="3.94885">
        <ele>454.4</ele>
        <time>2017-04-13T17:20:55Z</time>
      </trkpt>
      <trkpt lat="45.85251" lon="3.94915">
        <ele>455.4</ele>
        <time>2017-04-13T17:20:58Z</time>
      </trkpt>
      <trkpt lat="45.85249" lon="3.94971">
        <ele>454.2</ele>
        <time>2017-04-13T17:21:04Z</time>
      </trkpt>
      <trkpt lat="45.85248" lon="3.95022">
        <ele>453.8</ele>
        <time>2017-04-13T17:21:10Z</time>
      </trkpt>
      <trkpt lat="45.85258" lon="3.95072">
        <ele>455.1</ele>
        <time>2017-04-13T17:21:15Z</time>
      </trkpt>
      <trkpt lat="45.85286" lon="3.95122">
        <ele>457</ele>
        <time>2017-04-13T17:21:21Z</time>
      </trkpt>
      <trkpt lat="45.85302" lon="3.95164">
        <ele>457.3</ele>
        <time>2017-04-13T17:21:28Z</time>
      </trkpt>
      <trkpt lat="45.85305" lon="3.95205">
        <ele>456.2</ele>
        <time>2017-04-13T17:21:33Z</time>
      </trkpt>
      <trkpt lat="45.85315" lon="3.95256">
        <ele>453.1</ele>
        <time>2017-04-13T17:21:39Z</time>
      </trkpt>
      <trkpt lat="45.85307" lon="3.95278">
        <ele>455.6</ele>
        <time>2017-04-13T17:21:44Z</time>
      </trkpt>
      <trkpt lat="45.85293" lon="3.95283">
        <ele>456.6</ele>
        <time>2017-04-13T17:21:51Z</time>
      </trkpt>
      <trkpt lat="45.85259" lon="3.95318">
        <ele>454.1</ele>
        <time>2017-04-13T17:22:01Z</time>
      </trkpt>
      <trkpt lat="45.85235" lon="3.9535">
        <ele>453.3</ele>
        <time>2017-04-13T17:22:06Z</time>
      </trkpt>
      <trkpt lat="45.85218" lon="3.95366">
        <ele>452.4</ele>
        <time>2017-04-13T17:22:10Z</time>
      </trkpt>
      <trkpt lat="45.85196" lon="3.95393">
        <ele>449.7</ele>
        <time>2017-04-13T17:22:18Z</time>
      </trkpt>
      <trkpt lat="45.85191" lon="3.95417">
        <ele>446.5</ele>
        <time>2017-04-13T17:22:24Z</time>
      </trkpt>
      <trkpt lat="45.85203" lon="3.95445">
        <ele>445.6</ele>
        <time>2017-04-13T17:22:34Z</time>
      </trkpt>
      <trkpt lat="45.85215" lon="3.95471">
        <ele>440.7</ele>
        <time>2017-04-13T17:22:42Z</time>
      </trkpt>
      <trkpt lat="45.8522" lon="3.95524">
        <ele>435.9</ele>
        <time>2017-04-13T17:22:51Z</time>
      </trkpt>
      <trkpt lat="45.85221" lon="3.9556">
        <ele>432.9</ele>
        <time>2017-04-13T17:22:56Z</time>
      </trkpt>
      <trkpt lat="45.85223" lon="3.95606">
        <ele>430</ele>
        <time>2017-04-13T17:23:02Z</time>
      </trkpt>
      <trkpt lat="45.85218" lon="3.95649">
        <ele>428</ele>
        <time>2017-04-13T17:23:09Z</time>
      </trkpt>
      <trkpt lat="45.85214" lon="3.95661">
        <ele>426.3</ele>
        <time>2017-04-13T17:23:15Z</time>
      </trkpt>
      <trkpt lat="45.85202" lon="3.95693">
        <ele>423.9</ele>
        <time>2017-04-13T17:23:24Z</time>
      </trkpt>
      <trkpt lat="45.85191" lon="3.95718">
        <ele>422.9</ele>
        <time>2017-04-13T17:23:29Z</time>
      </trkpt>
      <trkpt lat="45.85174" lon="3.95754">
        <ele>422.5</ele>
        <time>2017-04-13T17:23:35Z</time>
      </trkpt>
      <trkpt lat="45.85162" lon="3.95786">
        <ele>421.8</ele>
        <time>2017-04-13T17:23:40Z</time>
      </trkpt>
      <trkpt lat="45.85148" lon="3.95817">
        <ele>422.9</ele>
        <time>2017-04-13T17:23:45Z</time>
      </trkpt>
      <trkpt lat="45.85121" lon="3.95847">
        <ele>422.9</ele>
        <time>2017-04-13T17:23:51Z</time>
      </trkpt>
      <trkpt lat="45.85086" lon="3.95852">
        <ele>421.2</ele>
        <time>2017-04-13T17:23:57Z</time>
      </trkpt>
      <trkpt lat="45.85056" lon="3.95858">
        <ele>419</ele>
        <time>2017-04-13T17:24:03Z</time>
      </trkpt>
      <trkpt lat="45.85038" lon="3.95861">
        <ele>418</ele>
        <time>2017-04-13T17:24:06Z</time>
      </trkpt>
      <trkpt lat="45.85014" lon="3.95862">
        <ele>416.1</ele>
        <time>2017-04-13T17:24:11Z</time>
      </trkpt>
      <trkpt lat="45.84988" lon="3.95878">
        <ele>414</ele>
        <time>2017-04-13T17:24:17Z</time>
      </trkpt>
      <trkpt lat="45.84957" lon="3.95901">
        <ele>411.7</ele>
        <time>2017-04-13T17:24:24Z</time>
      </trkpt>
      <trkpt lat="45.84944" lon="3.95908">
        <ele>410.4</ele>
        <time>2017-04-13T17:24:29Z</time>
      </trkpt>
      <trkpt lat="45.8494" lon="3.95912">
        <ele>410</ele>
        <time>2017-04-13T17:24:32Z</time>
      </trkpt>
      <trkpt lat="45.8494" lon="3.95912">
        <ele>410</ele>
        <time>2017-04-13T17:24:38Z</time>
      </trkpt>
      <trkpt lat="45.84915" lon="3.95901">
        <ele>409.7</ele>
        <time>2017-04-13T17:25:20Z</time>
      </trkpt>
      <trkpt lat="45.84915" lon="3.95901">
        <ele>409.7</ele>
        <time>2017-04-13T17:25:28Z</time>
      </trkpt>
      <trkpt lat="45.84915" lon="3.95901">
        <ele>409.7</ele>
        <time>2017-04-13T17:25:29Z</time>
      </trkpt>
      <trkpt lat="45.84895" lon="3.95897">
        <ele>411.5</ele>
        <time>2017-04-13T17:25:40Z</time>
      </trkpt>
      <trkpt lat="45.84869" lon="3.9589">
        <ele>413.4</ele>
        <time>2017-04-13T17:25:46Z</time>
      </trkpt>
      <trkpt lat="45.84841" lon="3.95895">
        <ele>416</ele>
        <time>2017-04-13T17:25:51Z</time>
      </trkpt>
      <trkpt lat="45.84808" lon="3.95903">
        <ele>419.3</ele>
        <time>2017-04-13T17:25:57Z</time>
      </trkpt>
      <trkpt lat="45.84778" lon="3.95916">
        <ele>422.8</ele>
        <time>2017-04-13T17:26:04Z</time>
      </trkpt>
      <trkpt lat="45.8475" lon="3.95928">
        <ele>425.5</ele>
        <time>2017-04-13T17:26:10Z</time>
      </trkpt>
      <trkpt lat="45.84732" lon="3.95926">
        <ele>428.5</ele>
        <time>2017-04-13T17:26:16Z</time>
      </trkpt>
      <trkpt lat="45.84699" lon="3.95923">
        <ele>433</ele>
        <time>2017-04-13T17:26:25Z</time>
      </trkpt>
      <trkpt lat="45.84665" lon="3.95916">
        <ele>436.2</ele>
        <time>2017-04-13T17:26:32Z</time>
      </trkpt>
      <trkpt lat="45.84618" lon="3.95912">
        <ele>442.1</ele>
        <time>2017-04-13T17:26:37Z</time>
      </trkpt>
      <trkpt lat="45.84589" lon="3.95909">
        <ele>446.4</ele>
        <time>2017-04-13T17:26:42Z</time>
      </trkpt>
      <trkpt lat="45.84571" lon="3.95908">
        <ele>452.1</ele>
        <time>2017-04-13T17:26:47Z</time>
      </trkpt>
      <trkpt lat="45.84555" lon="3.95924">
        <ele>454</ele>
        <time>2017-04-13T17:26:54Z</time>
      </trkpt>
      <trkpt lat="45.84559" lon="3.95952">
        <ele>454.2</ele>
        <time>2017-04-13T17:27:03Z</time>
      </trkpt>
      <trkpt lat="45.84567" lon="3.95962">
        <ele>455.2</ele>
        <time>2017-04-13T17:27:08Z</time>
      </trkpt>
      <trkpt lat="45.84577" lon="3.9597">
        <ele>456.3</ele>
        <time>2017-04-13T17:27:15Z</time>
      </trkpt>
      <trkpt lat="45.84589" lon="3.95993">
        <ele>457.6</ele>
        <time>2017-04-13T17:27:22Z</time>
      </trkpt>
      <trkpt lat="45.8458" lon="3.96029">
        <ele>456.4</ele>
        <time>2017-04-13T17:27:30Z</time>
      </trkpt>
      <trkpt lat="45.8457" lon="3.96051">
        <ele>455.8</ele>
        <time>2017-04-13T17:27:35Z</time>
      </trkpt>
      <trkpt lat="45.84558" lon="3.96071">
        <ele>455.4</ele>
        <time>2017-04-13T17:27:41Z</time>
      </trkpt>
      <trkpt lat="45.8455" lon="3.96105">
        <ele>455</ele>
        <time>2017-04-13T17:27:46Z</time>
      </trkpt>
      <trkpt lat="45.84548" lon="3.96135">
        <ele>451.4</ele>
        <time>2017-04-13T17:27:50Z</time>
      </trkpt>
      <trkpt lat="45.84551" lon="3.96169">
        <ele>450.9</ele>
        <time>2017-04-13T17:27:56Z</time>
      </trkpt>
      <trkpt lat="45.84551" lon="3.96169">
        <ele>450.9</ele>
        <time>2017-04-13T17:28:04Z</time>
      </trkpt>
      <trkpt lat="45.84551" lon="3.96169">
        <ele>450.9</ele>
        <time>2017-04-13T17:28:06Z</time>
      </trkpt>
      <trkpt lat="45.84551" lon="3.96169">
        <ele>452.3</ele>
        <time>2017-04-13T17:28:13Z</time>
      </trkpt>
      <trkpt lat="45.84551" lon="3.96169">
        <ele>452.3</ele>
        <time>2017-04-13T17:29:07Z</time>
      </trkpt>
      <trkpt lat="45.84551" lon="3.96169">
        <ele>450.9</ele>
        <time>2017-04-13T17:29:07Z</time>
      </trkpt>
      <trkpt lat="45.84548" lon="3.962">
        <ele>449.5</ele>
        <time>2017-04-13T17:29:26Z</time>
      </trkpt>
      <trkpt lat="45.84542" lon="3.96223">
        <ele>449</ele>
        <time>2017-04-13T17:29:29Z</time>
      </trkpt>
      <trkpt lat="45.84518" lon="3.96253">
        <ele>447.5</ele>
        <time>2017-04-13T17:29:36Z</time>
      </trkpt>
      <trkpt lat="45.84498" lon="3.96263">
        <ele>446.8</ele>
        <time>2017-04-13T17:29:41Z</time>
      </trkpt>
      <trkpt lat="45.84483" lon="3.96267">
        <ele>445.4</ele>
        <time>2017-04-13T17:29:50Z</time>
      </trkpt>
      <trkpt lat="45.84461" lon="3.96248">
        <ele>444.9</ele>
        <time>2017-04-13T17:29:59Z</time>
      </trkpt>
      <trkpt lat="45.84416" lon="3.96243">
        <ele>443.5</ele>
        <time>2017-04-13T17:30:05Z</time>
      </trkpt>
      <trkpt lat="45.84375" lon="3.96259">
        <ele>442.2</ele>
        <time>2017-04-13T17:30:11Z</time>
      </trkpt>
      <trkpt lat="45.8434" lon="3.96275">
        <ele>440.7</ele>
        <time>2017-04-13T17:30:17Z</time>
      </trkpt>
      <trkpt lat="45.84316" lon="3.96303">
        <ele>437.8</ele>
        <time>2017-04-13T17:30:23Z</time>
      </trkpt>
      <trkpt lat="45.84292" lon="3.96335">
        <ele>436.6</ele>
        <time>2017-04-13T17:30:28Z</time>
      </trkpt>
      <trkpt lat="45.84263" lon="3.96383">
        <ele>435.4</ele>
        <time>2017-04-13T17:30:34Z</time>
      </trkpt>
      <trkpt lat="45.84248" lon="3.96409">
        <ele>434.1</ele>
        <time>2017-04-13T17:30:37Z</time>
      </trkpt>
      <trkpt lat="45.84222" lon="3.96444">
        <ele>431</ele>
        <time>2017-04-13T17:30:41Z</time>
      </trkpt>
      <trkpt lat="45.84182" lon="3.9648">
        <ele>430.9</ele>
        <time>2017-04-13T17:30:46Z</time>
      </trkpt>
      <trkpt lat="45.84153" lon="3.96495">
        <ele>430</ele>
        <time>2017-04-13T17:30:51Z</time>
      </trkpt>
      <trkpt lat="45.84124" lon="3.96506">
        <ele>429.2</ele>
        <time>2017-04-13T17:30:57Z</time>
      </trkpt>
      <trkpt lat="45.84102" lon="3.96506">
        <ele>429</ele>
        <time>2017-04-13T17:31:02Z</time>
      </trkpt>
      <trkpt lat="45.84065" lon="3.96511">
        <ele>428.3</ele>
        <time>2017-04-13T17:31:08Z</time>
      </trkpt>
      <trkpt lat="45.84024" lon="3.96525">
        <ele>428.7</ele>
        <time>2017-04-13T17:31:14Z</time>
      </trkpt>
      <trkpt lat="45.83988" lon="3.96537">
        <ele>428.1</ele>
        <time>2017-04-13T17:31:20Z</time>
      </trkpt>
      <trkpt lat="45.8396" lon="3.96529">
        <ele>427.5</ele>
        <time>2017-04-13T17:31:25Z</time>
      </trkpt>
      <trkpt lat="45.83945" lon="3.96516">
        <ele>428.2</ele>
        <time>2017-04-13T17:31:28Z</time>
      </trkpt>
      <trkpt lat="45.83933" lon="3.96472">
        <ele>427.9</ele>
        <time>2017-04-13T17:31:34Z</time>
      </trkpt>
      <trkpt lat="45.83924" lon="3.96415">
        <ele>426.5</ele>
        <time>2017-04-13T17:31:42Z</time>
      </trkpt>
      <trkpt lat="45.83903" lon="3.96367">
        <ele>425.1</ele>
        <time>2017-04-13T17:31:47Z</time>
      </trkpt>
      <trkpt lat="45.8389" lon="3.96348">
        <ele>424.3</ele>
        <time>2017-04-13T17:31:50Z</time>
      </trkpt>
      <trkpt lat="45.83853" lon="3.96326">
        <ele>425.9</ele>
        <time>2017-04-13T17:31:56Z</time>
      </trkpt>
      <trkpt lat="45.83816" lon="3.96339">
        <ele>425.5</ele>
        <time>2017-04-13T17:32:02Z</time>
      </trkpt>
      <trkpt lat="45.83796" lon="3.96355">
        <ele>424.4</ele>
        <time>2017-04-13T17:32:07Z</time>
      </trkpt>
      <trkpt lat="45.83761" lon="3.96384">
        <ele>423.2</ele>
        <time>2017-04-13T17:32:14Z</time>
      </trkpt>
      <trkpt lat="45.83729" lon="3.96419">
        <ele>421</ele>
        <time>2017-04-13T17:32:20Z</time>
      </trkpt>
      <trkpt lat="45.83703" lon="3.96446">
        <ele>419.3</ele>
        <time>2017-04-13T17:32:25Z</time>
      </trkpt>
      <trkpt lat="45.83683" lon="3.96468">
        <ele>419.1</ele>
        <time>2017-04-13T17:32:30Z</time>
      </trkpt>
      <trkpt lat="45.83666" lon="3.96508">
        <ele>419.4</ele>
        <time>2017-04-13T17:32:36Z</time>
      </trkpt>
      <trkpt lat="45.83655" lon="3.96533">
        <ele>419.5</ele>
        <time>2017-04-13T17:32:40Z</time>
      </trkpt>
      <trkpt lat="45.83633" lon="3.96562">
        <ele>418.2</ele>
        <time>2017-04-13T17:32:46Z</time>
      </trkpt>
      <trkpt lat="45.83605" lon="3.96586">
        <ele>417.4</ele>
        <time>2017-04-13T17:32:52Z</time>
      </trkpt>
      <trkpt lat="45.83585" lon="3.96614">
        <ele>415.7</ele>
        <time>2017-04-13T17:32:58Z</time>
      </trkpt>
      <trkpt lat="45.83564" lon="3.9664">
        <ele>416.4</ele>
        <time>2017-04-13T17:33:04Z</time>
      </trkpt>
      <trkpt lat="45.83545" lon="3.96669">
        <ele>418.1</ele>
        <time>2017-04-13T17:33:09Z</time>
      </trkpt>
      <trkpt lat="45.83535" lon="3.96687">
        <ele>419.3</ele>
        <time>2017-04-13T17:33:12Z</time>
      </trkpt>
      <trkpt lat="45.83522" lon="3.96719">
        <ele>420.1</ele>
        <time>2017-04-13T17:33:17Z</time>
      </trkpt>
      <trkpt lat="45.83503" lon="3.96765">
        <ele>421.6</ele>
        <time>2017-04-13T17:33:23Z</time>
      </trkpt>
      <trkpt lat="45.8349" lon="3.968">
        <ele>425.9</ele>
        <time>2017-04-13T17:33:28Z</time>
      </trkpt>
      <trkpt lat="45.83464" lon="3.96836">
        <ele>428.6</ele>
        <time>2017-04-13T17:33:34Z</time>
      </trkpt>
      <trkpt lat="45.83449" lon="3.969">
        <ele>427.2</ele>
        <time>2017-04-13T17:33:40Z</time>
      </trkpt>
      <trkpt lat="45.83432" lon="3.96972">
        <ele>424.2</ele>
        <time>2017-04-13T17:33:46Z</time>
      </trkpt>
      <trkpt lat="45.83405" lon="3.9703">
        <ele>423</ele>
        <time>2017-04-13T17:33:51Z</time>
      </trkpt>
      <trkpt lat="45.834" lon="3.97098">
        <ele>421.4</ele>
        <time>2017-04-13T17:33:56Z</time>
      </trkpt>
      <trkpt lat="45.83402" lon="3.9714">
        <ele>419.8</ele>
        <time>2017-04-13T17:33:59Z</time>
      </trkpt>
      <trkpt lat="45.83393" lon="3.9721">
        <ele>417.1</ele>
        <time>2017-04-13T17:34:04Z</time>
      </trkpt>
      <trkpt lat="45.83362" lon="3.9728">
        <ele>414.1</ele>
        <time>2017-04-13T17:34:10Z</time>
      </trkpt>
      <trkpt lat="45.83329" lon="3.97333">
        <ele>411.2</ele>
        <time>2017-04-13T17:34:15Z</time>
      </trkpt>
      <trkpt lat="45.83304" lon="3.9736">
        <ele>409.3</ele>
        <time>2017-04-13T17:34:18Z</time>
      </trkpt>
      <trkpt lat="45.83266" lon="3.97388">
        <ele>406.2</ele>
        <time>2017-04-13T17:34:22Z</time>
      </trkpt>
      <trkpt lat="45.83219" lon="3.97397">
        <ele>402.8</ele>
        <time>2017-04-13T17:34:27Z</time>
      </trkpt>
      <trkpt lat="45.83191" lon="3.97389">
        <ele>401.5</ele>
        <time>2017-04-13T17:34:30Z</time>
      </trkpt>
      <trkpt lat="45.83162" lon="3.97389">
        <ele>399.7</ele>
        <time>2017-04-13T17:34:33Z</time>
      </trkpt>
      <trkpt lat="45.83154" lon="3.97451">
        <ele>398.7</ele>
        <time>2017-04-13T17:34:39Z</time>
      </trkpt>
      <trkpt lat="45.83193" lon="3.97478">
        <ele>398.2</ele>
        <time>2017-04-13T17:34:45Z</time>
      </trkpt>
      <trkpt lat="45.8322" lon="3.97514">
        <ele>396.7</ele>
        <time>2017-04-13T17:34:50Z</time>
      </trkpt>
      <trkpt lat="45.83222" lon="3.97576">
        <ele>395.8</ele>
        <time>2017-04-13T17:34:56Z</time>
      </trkpt>
      <trkpt lat="45.83211" lon="3.97642">
        <ele>395.4</ele>
        <time>2017-04-13T17:35:02Z</time>
      </trkpt>
      <trkpt lat="45.83198" lon="3.97693">
        <ele>394.6</ele>
        <time>2017-04-13T17:35:07Z</time>
      </trkpt>
      <trkpt lat="45.83177" lon="3.97739">
        <ele>394.9</ele>
        <time>2017-04-13T17:35:12Z</time>
      </trkpt>
      <trkpt lat="45.83169" lon="3.97812">
        <ele>393.7</ele>
        <time>2017-04-13T17:35:19Z</time>
      </trkpt>
      <trkpt lat="45.83164" lon="3.97868">
        <ele>393.4</ele>
        <time>2017-04-13T17:35:24Z</time>
      </trkpt>
      <trkpt lat="45.83169" lon="3.97921">
        <ele>393.2</ele>
        <time>2017-04-13T17:35:29Z</time>
      </trkpt>
      <trkpt lat="45.83168" lon="3.97975">
        <ele>391.8</ele>
        <time>2017-04-13T17:35:34Z</time>
      </trkpt>
      <trkpt lat="45.83167" lon="3.98028">
        <ele>390.3</ele>
        <time>2017-04-13T17:35:39Z</time>
      </trkpt>
      <trkpt lat="45.83173" lon="3.98059">
        <ele>390.3</ele>
        <time>2017-04-13T17:35:42Z</time>
      </trkpt>
      <trkpt lat="45.83178" lon="3.9809">
        <ele>391</ele>
        <time>2017-04-13T17:35:45Z</time>
      </trkpt>
      <trkpt lat="45.83198" lon="3.98156">
        <ele>391.5</ele>
        <time>2017-04-13T17:35:51Z</time>
      </trkpt>
      <trkpt lat="45.83212" lon="3.98182">
        <ele>391.3</ele>
        <time>2017-04-13T17:35:54Z</time>
      </trkpt>
      <trkpt lat="45.83233" lon="3.98212">
        <ele>391</ele>
        <time>2017-04-13T17:35:58Z</time>
      </trkpt>
      <trkpt lat="45.83267" lon="3.98238">
        <ele>388.7</ele>
        <time>2017-04-13T17:36:04Z</time>
      </trkpt>
      <trkpt lat="45.83306" lon="3.9826">
        <ele>387.6</ele>
        <time>2017-04-13T17:36:10Z</time>
      </trkpt>
      <trkpt lat="45.83337" lon="3.98299">
        <ele>387.1</ele>
        <time>2017-04-13T17:36:16Z</time>
      </trkpt>
      <trkpt lat="45.83353" lon="3.98345">
        <ele>387.5</ele>
        <time>2017-04-13T17:36:21Z</time>
      </trkpt>
      <trkpt lat="45.83369" lon="3.98402">
        <ele>386.7</ele>
        <time>2017-04-13T17:36:27Z</time>
      </trkpt>
      <trkpt lat="45.83375" lon="3.98432">
        <ele>386.5</ele>
        <time>2017-04-13T17:36:30Z</time>
      </trkpt>
      <trkpt lat="45.8338" lon="3.98463">
        <ele>386.2</ele>
        <time>2017-04-13T17:36:33Z</time>
      </trkpt>
      <trkpt lat="45.83384" lon="3.98494">
        <ele>385.6</ele>
        <time>2017-04-13T17:36:36Z</time>
      </trkpt>
      <trkpt lat="45.83387" lon="3.98536">
        <ele>384.3</ele>
        <time>2017-04-13T17:36:40Z</time>
      </trkpt>
      <trkpt lat="45.83388" lon="3.98593">
        <ele>382.9</ele>
        <time>2017-04-13T17:36:45Z</time>
      </trkpt>
      <trkpt lat="45.83387" lon="3.98648">
        <ele>381.5</ele>
        <time>2017-04-13T17:36:50Z</time>
      </trkpt>
      <trkpt lat="45.83391" lon="3.98706">
        <ele>380.6</ele>
        <time>2017-04-13T17:36:55Z</time>
      </trkpt>
      <trkpt lat="45.83425" lon="3.98742">
        <ele>378.9</ele>
        <time>2017-04-13T17:37:01Z</time>
      </trkpt>
      <trkpt lat="45.83472" lon="3.98749">
        <ele>377.4</ele>
        <time>2017-04-13T17:37:07Z</time>
      </trkpt>
      <trkpt lat="45.83502" lon="3.98781">
        <ele>377.4</ele>
        <time>2017-04-13T17:37:12Z</time>
      </trkpt>
      <trkpt lat="45.83512" lon="3.9884">
        <ele>378.4</ele>
        <time>2017-04-13T17:37:18Z</time>
      </trkpt>
      <trkpt lat="45.83515" lon="3.98879">
        <ele>378.3</ele>
        <time>2017-04-13T17:37:22Z</time>
      </trkpt>
      <trkpt lat="45.8352" lon="3.98928">
        <ele>378.9</ele>
        <time>2017-04-13T17:37:27Z</time>
      </trkpt>
      <trkpt lat="45.83524" lon="3.98977">
        <ele>378.5</ele>
        <time>2017-04-13T17:37:32Z</time>
      </trkpt>
      <trkpt lat="45.83526" lon="3.99025">
        <ele>377.9</ele>
        <time>2017-04-13T17:37:37Z</time>
      </trkpt>
      <trkpt lat="45.83523" lon="3.99091">
        <ele>377.8</ele>
        <time>2017-04-13T17:37:44Z</time>
      </trkpt>
      <trkpt lat="45.83521" lon="3.99136">
        <ele>377.6</ele>
        <time>2017-04-13T17:37:49Z</time>
      </trkpt>
      <trkpt lat="45.83519" lon="3.99188">
        <ele>377.5</ele>
        <time>2017-04-13T17:37:55Z</time>
      </trkpt>
      <trkpt lat="45.83517" lon="3.99229">
        <ele>377.1</ele>
        <time>2017-04-13T17:38:00Z</time>
      </trkpt>
      <trkpt lat="45.83514" lon="3.99253">
        <ele>377.2</ele>
        <time>2017-04-13T17:38:03Z</time>
      </trkpt>
      <trkpt lat="45.83511" lon="3.99291">
        <ele>379.3</ele>
        <time>2017-04-13T17:38:08Z</time>
      </trkpt>
      <trkpt lat="45.83507" lon="3.99332">
        <ele>381</ele>
        <time>2017-04-13T17:38:13Z</time>
      </trkpt>
      <trkpt lat="45.83498" lon="3.99365">
        <ele>383.4</ele>
        <time>2017-04-13T17:38:18Z</time>
      </trkpt>
      <trkpt lat="45.83491" lon="3.99381">
        <ele>388.4</ele>
        <time>2017-04-13T17:38:23Z</time>
      </trkpt>
      <trkpt lat="45.83508" lon="3.99399">
        <ele>391.1</ele>
        <time>2017-04-13T17:38:33Z</time>
      </trkpt>
      <trkpt lat="45.83524" lon="3.99417">
        <ele>391.6</ele>
        <time>2017-04-13T17:38:38Z</time>
      </trkpt>
      <trkpt lat="45.83544" lon="3.99433">
        <ele>394.1</ele>
        <time>2017-04-13T17:38:45Z</time>
      </trkpt>
      <trkpt lat="45.83564" lon="3.99443">
        <ele>396.5</ele>
        <time>2017-04-13T17:38:51Z</time>
      </trkpt>
      <trkpt lat="45.83587" lon="3.9945">
        <ele>399.7</ele>
        <time>2017-04-13T17:38:57Z</time>
      </trkpt>
      <trkpt lat="45.8361" lon="3.9945">
        <ele>401.6</ele>
        <time>2017-04-13T17:39:03Z</time>
      </trkpt>
      <trkpt lat="45.83633" lon="3.99455">
        <ele>405.2</ele>
        <time>2017-04-13T17:39:10Z</time>
      </trkpt>
      <trkpt lat="45.83652" lon="3.99474">
        <ele>408.1</ele>
        <time>2017-04-13T17:39:15Z</time>
      </trkpt>
      <trkpt lat="45.83671" lon="3.99495">
        <ele>408.7</ele>
        <time>2017-04-13T17:39:20Z</time>
      </trkpt>
      <trkpt lat="45.83689" lon="3.99511">
        <ele>408.6</ele>
        <time>2017-04-13T17:39:25Z</time>
      </trkpt>
      <trkpt lat="45.83713" lon="3.99526">
        <ele>411.9</ele>
        <time>2017-04-13T17:39:31Z</time>
      </trkpt>
      <trkpt lat="45.83733" lon="3.99542">
        <ele>415.2</ele>
        <time>2017-04-13T17:39:38Z</time>
      </trkpt>
      <trkpt lat="45.83756" lon="3.99563">
        <ele>421.8</ele>
        <time>2017-04-13T17:39:46Z</time>
      </trkpt>
      <trkpt lat="45.8377" lon="3.99597">
        <ele>424</ele>
        <time>2017-04-13T17:39:52Z</time>
      </trkpt>
      <trkpt lat="45.83758" lon="3.99616">
        <ele>425</ele>
        <time>2017-04-13T17:39:58Z</time>
      </trkpt>
      <trkpt lat="45.8373" lon="3.9962">
        <ele>430.3</ele>
        <time>2017-04-13T17:40:04Z</time>
      </trkpt>
      <trkpt lat="45.8371" lon="3.99619">
        <ele>432.5</ele>
        <time>2017-04-13T17:40:09Z</time>
      </trkpt>
      <trkpt lat="45.83682" lon="3.9962">
        <ele>435.5</ele>
        <time>2017-04-13T17:40:16Z</time>
      </trkpt>
      <trkpt lat="45.83667" lon="3.99626">
        <ele>437.5</ele>
        <time>2017-04-13T17:40:22Z</time>
      </trkpt>
      <trkpt lat="45.83672" lon="3.99644">
        <ele>438.3</ele>
        <time>2017-04-13T17:40:27Z</time>
      </trkpt>
      <trkpt lat="45.83686" lon="3.99673">
        <ele>439.3</ele>
        <time>2017-04-13T17:40:33Z</time>
      </trkpt>
      <trkpt lat="45.83696" lon="3.99702">
        <ele>439.8</ele>
        <time>2017-04-13T17:40:39Z</time>
      </trkpt>
      <trkpt lat="45.83703" lon="3.99729">
        <ele>440.1</ele>
        <time>2017-04-13T17:40:44Z</time>
      </trkpt>
      <trkpt lat="45.83705" lon="3.99767">
        <ele>442.5</ele>
        <time>2017-04-13T17:40:51Z</time>
      </trkpt>
      <trkpt lat="45.83705" lon="3.99799">
        <ele>444.5</ele>
        <time>2017-04-13T17:40:56Z</time>
      </trkpt>
      <trkpt lat="45.83702" lon="3.99834">
        <ele>446.3</ele>
        <time>2017-04-13T17:41:01Z</time>
      </trkpt>
      <trkpt lat="45.83697" lon="3.99873">
        <ele>448.2</ele>
        <time>2017-04-13T17:41:07Z</time>
      </trkpt>
      <trkpt lat="45.83696" lon="3.99912">
        <ele>450.5</ele>
        <time>2017-04-13T17:41:13Z</time>
      </trkpt>
      <trkpt lat="45.837" lon="3.99945">
        <ele>452.2</ele>
        <time>2017-04-13T17:41:18Z</time>
      </trkpt>
      <trkpt lat="45.83702" lon="3.99965">
        <ele>453.3</ele>
        <time>2017-04-13T17:41:21Z</time>
      </trkpt>
      <trkpt lat="45.83706" lon="4.00001">
        <ele>455.9</ele>
        <time>2017-04-13T17:41:26Z</time>
      </trkpt>
      <trkpt lat="45.83712" lon="4.00044">
        <ele>459.6</ele>
        <time>2017-04-13T17:41:32Z</time>
      </trkpt>
      <trkpt lat="45.83717" lon="4.00078">
        <ele>462.2</ele>
        <time>2017-04-13T17:41:37Z</time>
      </trkpt>
      <trkpt lat="45.83722" lon="4.00121">
        <ele>463.9</ele>
        <time>2017-04-13T17:41:43Z</time>
      </trkpt>
      <trkpt lat="45.83724" lon="4.00156">
        <ele>465.7</ele>
        <time>2017-04-13T17:41:48Z</time>
      </trkpt>
      <trkpt lat="45.83726" lon="4.00196">
        <ele>467.5</ele>
        <time>2017-04-13T17:41:53Z</time>
      </trkpt>
      <trkpt lat="45.83729" lon="4.00246">
        <ele>468.6</ele>
        <time>2017-04-13T17:41:59Z</time>
      </trkpt>
      <trkpt lat="45.83735" lon="4.00296">
        <ele>470.1</ele>
        <time>2017-04-13T17:42:05Z</time>
      </trkpt>
      <trkpt lat="45.83739" lon="4.00321">
        <ele>470.6</ele>
        <time>2017-04-13T17:42:08Z</time>
      </trkpt>
      <trkpt lat="45.83744" lon="4.00361">
        <ele>469.9</ele>
        <time>2017-04-13T17:42:13Z</time>
      </trkpt>
      <trkpt lat="45.83751" lon="4.004">
        <ele>469.6</ele>
        <time>2017-04-13T17:42:18Z</time>
      </trkpt>
      <trkpt lat="45.83758" lon="4.00439">
        <ele>468.5</ele>
        <time>2017-04-13T17:42:23Z</time>
      </trkpt>
      <trkpt lat="45.8376" lon="4.00481">
        <ele>469.2</ele>
        <time>2017-04-13T17:42:28Z</time>
      </trkpt>
      <trkpt lat="45.83763" lon="4.0052">
        <ele>466.5</ele>
        <time>2017-04-13T17:42:35Z</time>
      </trkpt>
      <trkpt lat="45.83786" lon="4.00484">
        <ele>464.3</ele>
        <time>2017-04-13T17:42:43Z</time>
      </trkpt>
      <trkpt lat="45.83807" lon="4.00446">
        <ele>463.2</ele>
        <time>2017-04-13T17:42:49Z</time>
      </trkpt>
      <trkpt lat="45.83825" lon="4.00412">
        <ele>462.5</ele>
        <time>2017-04-13T17:42:54Z</time>
      </trkpt>
      <trkpt lat="45.83844" lon="4.00377">
        <ele>462.2</ele>
        <time>2017-04-13T17:42:59Z</time>
      </trkpt>
      <trkpt lat="45.83862" lon="4.00332">
        <ele>463.1</ele>
        <time>2017-04-13T17:43:05Z</time>
      </trkpt>
      <trkpt lat="45.83872" lon="4.00313">
        <ele>463.8</ele>
        <time>2017-04-13T17:43:08Z</time>
      </trkpt>
      <trkpt lat="45.83898" lon="4.00294">
        <ele>464</ele>
        <time>2017-04-13T17:43:13Z</time>
      </trkpt>
      <trkpt lat="45.83926" lon="4.00275">
        <ele>464.4</ele>
        <time>2017-04-13T17:43:18Z</time>
      </trkpt>
      <trkpt lat="45.83954" lon="4.00257">
        <ele>464.3</ele>
        <time>2017-04-13T17:43:23Z</time>
      </trkpt>
      <trkpt lat="45.83985" lon="4.00242">
        <ele>464.7</ele>
        <time>2017-04-13T17:43:28Z</time>
      </trkpt>
      <trkpt lat="45.84023" lon="4.00226">
        <ele>464.6</ele>
        <time>2017-04-13T17:43:34Z</time>
      </trkpt>
      <trkpt lat="45.84063" lon="4.00216">
        <ele>465</ele>
        <time>2017-04-13T17:43:40Z</time>
      </trkpt>
      <trkpt lat="45.84105" lon="4.00216">
        <ele>465.7</ele>
        <time>2017-04-13T17:43:46Z</time>
      </trkpt>
      <trkpt lat="45.84142" lon="4.00213">
        <ele>465.8</ele>
        <time>2017-04-13T17:43:52Z</time>
      </trkpt>
      <trkpt lat="45.84174" lon="4.00192">
        <ele>463.6</ele>
        <time>2017-04-13T17:43:58Z</time>
      </trkpt>
      <trkpt lat="45.84206" lon="4.00166">
        <ele>461.9</ele>
        <time>2017-04-13T17:44:04Z</time>
      </trkpt>
      <trkpt lat="45.84236" lon="4.00139">
        <ele>461.4</ele>
        <time>2017-04-13T17:44:10Z</time>
      </trkpt>
      <trkpt lat="45.84251" lon="4.00127">
        <ele>461.6</ele>
        <time>2017-04-13T17:44:13Z</time>
      </trkpt>
      <trkpt lat="45.84279" lon="4.00098">
        <ele>460.5</ele>
        <time>2017-04-13T17:44:19Z</time>
      </trkpt>
      <trkpt lat="45.84295" lon="4.00067">
        <ele>460.9</ele>
        <time>2017-04-13T17:44:24Z</time>
      </trkpt>
      <trkpt lat="45.8431" lon="4.00035">
        <ele>460.9</ele>
        <time>2017-04-13T17:44:29Z</time>
      </trkpt>
      <trkpt lat="45.84327" lon="3.99997">
        <ele>461.6</ele>
        <time>2017-04-13T17:44:35Z</time>
      </trkpt>
      <trkpt lat="45.84347" lon="3.99961">
        <ele>462.5</ele>
        <time>2017-04-13T17:44:41Z</time>
      </trkpt>
      <trkpt lat="45.84371" lon="3.99943">
        <ele>463.4</ele>
        <time>2017-04-13T17:44:46Z</time>
      </trkpt>
      <trkpt lat="45.84398" lon="3.99919">
        <ele>462.2</ele>
        <time>2017-04-13T17:44:52Z</time>
      </trkpt>
      <trkpt lat="45.84426" lon="3.99889">
        <ele>463.2</ele>
        <time>2017-04-13T17:44:58Z</time>
      </trkpt>
      <trkpt lat="45.8445" lon="3.99867">
        <ele>467.2</ele>
        <time>2017-04-13T17:45:03Z</time>
      </trkpt>
      <trkpt lat="45.84474" lon="3.99845">
        <ele>468.9</ele>
        <time>2017-04-13T17:45:08Z</time>
      </trkpt>
      <trkpt lat="45.84502" lon="3.99819">
        <ele>469.4</ele>
        <time>2017-04-13T17:45:13Z</time>
      </trkpt>
      <trkpt lat="45.8452" lon="3.99783">
        <ele>473.3</ele>
        <time>2017-04-13T17:45:18Z</time>
      </trkpt>
      <trkpt lat="45.84533" lon="3.99765">
        <ele>474.6</ele>
        <time>2017-04-13T17:45:21Z</time>
      </trkpt>
      <trkpt lat="45.8455" lon="3.9976">
        <ele>475.3</ele>
        <time>2017-04-13T17:45:24Z</time>
      </trkpt>
      <trkpt lat="45.84567" lon="3.99755">
        <ele>476.3</ele>
        <time>2017-04-13T17:45:27Z</time>
      </trkpt>
      <trkpt lat="45.84596" lon="3.99743">
        <ele>476.7</ele>
        <time>2017-04-13T17:45:32Z</time>
      </trkpt>
      <trkpt lat="45.84625" lon="3.99739">
        <ele>476.2</ele>
        <time>2017-04-13T17:45:37Z</time>
      </trkpt>
      <trkpt lat="45.84654" lon="3.99742">
        <ele>478.3</ele>
        <time>2017-04-13T17:45:44Z</time>
      </trkpt>
      <trkpt lat="45.84676" lon="3.99712">
        <ele>476.8</ele>
        <time>2017-04-13T17:45:49Z</time>
      </trkpt>
      <trkpt lat="45.847" lon="3.99682">
        <ele>476.3</ele>
        <time>2017-04-13T17:45:54Z</time>
      </trkpt>
      <trkpt lat="45.84725" lon="3.9965">
        <ele>476.8</ele>
        <time>2017-04-13T17:45:59Z</time>
      </trkpt>
      <trkpt lat="45.84751" lon="3.99628">
        <ele>477.6</ele>
        <time>2017-04-13T17:46:04Z</time>
      </trkpt>
      <trkpt lat="45.84787" lon="3.99636">
        <ele>478.6</ele>
        <time>2017-04-13T17:46:10Z</time>
      </trkpt>
      <trkpt lat="45.84822" lon="3.99643">
        <ele>478.8</ele>
        <time>2017-04-13T17:46:16Z</time>
      </trkpt>
      <trkpt lat="45.84853" lon="3.99662">
        <ele>480.9</ele>
        <time>2017-04-13T17:46:21Z</time>
      </trkpt>
      <trkpt lat="45.84869" lon="3.99679">
        <ele>481.3</ele>
        <time>2017-04-13T17:46:24Z</time>
      </trkpt>
      <trkpt lat="45.84886" lon="3.99693">
        <ele>481</ele>
        <time>2017-04-13T17:46:27Z</time>
      </trkpt>
      <trkpt lat="45.84911" lon="3.99715">
        <ele>481.4</ele>
        <time>2017-04-13T17:46:31Z</time>
      </trkpt>
      <trkpt lat="45.84936" lon="3.99732">
        <ele>481</ele>
        <time>2017-04-13T17:46:35Z</time>
      </trkpt>
      <trkpt lat="45.84978" lon="3.99732">
        <ele>480.8</ele>
        <time>2017-04-13T17:46:42Z</time>
      </trkpt>
      <trkpt lat="45.85011" lon="3.99722">
        <ele>479.8</ele>
        <time>2017-04-13T17:46:48Z</time>
      </trkpt>
      <trkpt lat="45.85037" lon="3.99725">
        <ele>476.9</ele>
        <time>2017-04-13T17:46:53Z</time>
      </trkpt>
      <trkpt lat="45.85076" lon="3.99727">
        <ele>480.8</ele>
        <time>2017-04-13T17:46:59Z</time>
      </trkpt>
      <trkpt lat="45.85105" lon="3.99737">
        <ele>481.7</ele>
        <time>2017-04-13T17:47:04Z</time>
      </trkpt>
      <trkpt lat="45.85139" lon="3.99758">
        <ele>483.4</ele>
        <time>2017-04-13T17:47:10Z</time>
      </trkpt>
      <trkpt lat="45.85168" lon="3.99775">
        <ele>487.5</ele>
        <time>2017-04-13T17:47:15Z</time>
      </trkpt>
      <trkpt lat="45.85194" lon="3.99791">
        <ele>487.8</ele>
        <time>2017-04-13T17:47:21Z</time>
      </trkpt>
      <trkpt lat="45.85205" lon="3.99796">
        <ele>487.6</ele>
        <time>2017-04-13T17:47:24Z</time>
      </trkpt>
      <trkpt lat="45.85218" lon="3.99797">
        <ele>485.3</ele>
        <time>2017-04-13T17:47:32Z</time>
      </trkpt>
      <trkpt lat="45.85282" lon="3.99788">
        <ele>482.9</ele>
        <time>2017-04-13T17:47:41Z</time>
      </trkpt>
      <trkpt lat="45.85318" lon="3.99797">
        <ele>481.4</ele>
        <time>2017-04-13T17:47:46Z</time>
      </trkpt>
      <trkpt lat="45.85356" lon="3.99812">
        <ele>480.6</ele>
        <time>2017-04-13T17:47:52Z</time>
      </trkpt>
      <trkpt lat="45.85392" lon="3.99819">
        <ele>478.4</ele>
        <time>2017-04-13T17:47:58Z</time>
      </trkpt>
      <trkpt lat="45.85431" lon="3.99815">
        <ele>475.9</ele>
        <time>2017-04-13T17:48:05Z</time>
      </trkpt>
      <trkpt lat="45.85467" lon="3.99808">
        <ele>475.2</ele>
        <time>2017-04-13T17:48:10Z</time>
      </trkpt>
      <trkpt lat="45.85481" lon="3.99843">
        <ele>474.9</ele>
        <time>2017-04-13T17:48:17Z</time>
      </trkpt>
      <trkpt lat="45.85488" lon="3.99907">
        <ele>473.7</ele>
        <time>2017-04-13T17:48:24Z</time>
      </trkpt>
      <trkpt lat="45.85508" lon="3.9999">
        <ele>469.8</ele>
        <time>2017-04-13T17:48:29Z</time>
      </trkpt>
      <trkpt lat="45.85525" lon="4.00058">
        <ele>467.8</ele>
        <time>2017-04-13T17:48:34Z</time>
      </trkpt>
      <trkpt lat="45.85543" lon="4.00116">
        <ele>468</ele>
        <time>2017-04-13T17:48:39Z</time>
      </trkpt>
      <trkpt lat="45.85552" lon="4.00149">
        <ele>468.2</ele>
        <time>2017-04-13T17:48:42Z</time>
      </trkpt>
      <trkpt lat="45.85561" lon="4.00179">
        <ele>468.7</ele>
        <time>2017-04-13T17:48:45Z</time>
      </trkpt>
      <trkpt lat="45.85569" lon="4.00208">
        <ele>469.2</ele>
        <time>2017-04-13T17:48:48Z</time>
      </trkpt>
      <trkpt lat="45.85578" lon="4.00247">
        <ele>470.3</ele>
        <time>2017-04-13T17:48:52Z</time>
      </trkpt>
      <trkpt lat="45.85586" lon="4.00295">
        <ele>470.8</ele>
        <time>2017-04-13T17:48:57Z</time>
      </trkpt>
      <trkpt lat="45.85597" lon="4.00354">
        <ele>471.6</ele>
        <time>2017-04-13T17:49:03Z</time>
      </trkpt>
      <trkpt lat="45.85605" lon="4.00381">
        <ele>470.8</ele>
        <time>2017-04-13T17:49:06Z</time>
      </trkpt>
      <trkpt lat="45.85614" lon="4.00406">
        <ele>469.7</ele>
        <time>2017-04-13T17:49:09Z</time>
      </trkpt>
      <trkpt lat="45.85626" lon="4.00439">
        <ele>468</ele>
        <time>2017-04-13T17:49:13Z</time>
      </trkpt>
      <trkpt lat="45.8564" lon="4.00487">
        <ele>465.1</ele>
        <time>2017-04-13T17:49:18Z</time>
      </trkpt>
      <trkpt lat="45.85643" lon="4.00518">
        <ele>462.6</ele>
        <time>2017-04-13T17:49:21Z</time>
      </trkpt>
      <trkpt lat="45.85641" lon="4.00576">
        <ele>459.5</ele>
        <time>2017-04-13T17:49:26Z</time>
      </trkpt>
      <trkpt lat="45.85635" lon="4.00635">
        <ele>456.9</ele>
        <time>2017-04-13T17:49:31Z</time>
      </trkpt>
      <trkpt lat="45.85633" lon="4.00697">
        <ele>455.5</ele>
        <time>2017-04-13T17:49:37Z</time>
      </trkpt>
      <trkpt lat="45.85637" lon="4.00755">
        <ele>455.2</ele>
        <time>2017-04-13T17:49:43Z</time>
      </trkpt>
      <trkpt lat="45.85642" lon="4.00814">
        <ele>454.3</ele>
        <time>2017-04-13T17:49:49Z</time>
      </trkpt>
      <trkpt lat="45.85648" lon="4.00865">
        <ele>455</ele>
        <time>2017-04-13T17:49:54Z</time>
      </trkpt>
      <trkpt lat="45.85657" lon="4.00892">
        <ele>455.3</ele>
        <time>2017-04-13T17:49:57Z</time>
      </trkpt>
      <trkpt lat="45.85678" lon="4.00939">
        <ele>454</ele>
        <time>2017-04-13T17:50:03Z</time>
      </trkpt>
      <trkpt lat="45.85695" lon="4.00982">
        <ele>451.5</ele>
        <time>2017-04-13T17:50:08Z</time>
      </trkpt>
      <trkpt lat="45.85703" lon="4.01037">
        <ele>447.4</ele>
        <time>2017-04-13T17:50:13Z</time>
      </trkpt>
      <trkpt lat="45.85716" lon="4.01104">
        <ele>443.8</ele>
        <time>2017-04-13T17:50:18Z</time>
      </trkpt>
      <trkpt lat="45.85739" lon="4.01165">
        <ele>441.9</ele>
        <time>2017-04-13T17:50:23Z</time>
      </trkpt>
      <trkpt lat="45.85763" lon="4.01233">
        <ele>441.9</ele>
        <time>2017-04-13T17:50:29Z</time>
      </trkpt>
      <trkpt lat="45.85774" lon="4.01267">
        <ele>440.4</ele>
        <time>2017-04-13T17:50:32Z</time>
      </trkpt>
      <trkpt lat="45.85793" lon="4.01323">
        <ele>439.3</ele>
        <time>2017-04-13T17:50:37Z</time>
      </trkpt>
      <trkpt lat="45.85814" lon="4.01372">
        <ele>437.2</ele>
        <time>2017-04-13T17:50:42Z</time>
      </trkpt>
      <trkpt lat="45.85839" lon="4.0142">
        <ele>435.5</ele>
        <time>2017-04-13T17:50:47Z</time>
      </trkpt>
      <trkpt lat="45.85852" lon="4.01447">
        <ele>434.9</ele>
        <time>2017-04-13T17:50:50Z</time>
      </trkpt>
      <trkpt lat="45.85873" lon="4.01486">
        <ele>434.1</ele>
        <time>2017-04-13T17:50:55Z</time>
      </trkpt>
      <trkpt lat="45.85873" lon="4.01519">
        <ele>433.6</ele>
        <time>2017-04-13T17:51:02Z</time>
      </trkpt>
      <trkpt lat="45.85843" lon="4.01529">
        <ele>434.8</ele>
        <time>2017-04-13T17:51:07Z</time>
      </trkpt>
      <trkpt lat="45.85823" lon="4.01536">
        <ele>435.8</ele>
        <time>2017-04-13T17:51:10Z</time>
      </trkpt>
      <trkpt lat="45.85788" lon="4.01549">
        <ele>435.2</ele>
        <time>2017-04-13T17:51:15Z</time>
      </trkpt>
      <trkpt lat="45.85767" lon="4.01555">
        <ele>434.9</ele>
        <time>2017-04-13T17:51:18Z</time>
      </trkpt>
      <trkpt lat="45.85743" lon="4.01563">
        <ele>434.9</ele>
        <time>2017-04-13T17:51:21Z</time>
      </trkpt>
      <trkpt lat="45.85695" lon="4.0158">
        <ele>434.7</ele>
        <time>2017-04-13T17:51:27Z</time>
      </trkpt>
      <trkpt lat="45.85658" lon="4.01595">
        <ele>434.7</ele>
        <time>2017-04-13T17:51:32Z</time>
      </trkpt>
      <trkpt lat="45.85614" lon="4.01613">
        <ele>434.4</ele>
        <time>2017-04-13T17:51:38Z</time>
      </trkpt>
      <trkpt lat="45.8557" lon="4.01629">
        <ele>434.3</ele>
        <time>2017-04-13T17:51:44Z</time>
      </trkpt>
      <trkpt lat="45.85535" lon="4.01645">
        <ele>432.8</ele>
        <time>2017-04-13T17:51:51Z</time>
      </trkpt>
      <trkpt lat="45.85517" lon="4.01647">
        <ele>431.1</ele>
        <time>2017-04-13T17:51:57Z</time>
      </trkpt>
      <trkpt lat="45.85507" lon="4.01643">
        <ele>428.6</ele>
        <time>2017-04-13T17:52:03Z</time>
      </trkpt>
      <trkpt lat="45.85506" lon="4.01635">
        <ele>424.9</ele>
        <time>2017-04-13T17:52:09Z</time>
      </trkpt>
      <trkpt lat="45.85506" lon="4.01635">
        <ele>424.3</ele>
        <time>2017-04-13T17:53:22Z</time>
      </trkpt>
      <trkpt lat="45.85506" lon="4.01635">
        <ele>424.3</ele>
        <time>2017-04-13T17:56:48Z</time>
      </trkpt>
    </trkseg>
  </trk>
</gpx>